<?xml version="1.0" encoding="UTF-8" standalone="no" ?>
<gpx xmlns="http://www.topografix.com/GPX/1/1" xmlns:xsi="http://www.w3.org/2001/XMLSchema-instance" xsi:schemaLocation="http://www.topografix.com/GPX/1/1 http://www.topografix.com/GPX/1/1/gpx.xsd" version="1.1" creator="VisuGPX - https://www.visugpx.com">
  <metadata>
    <name>PtDuch-Tallende</name>
  </metadata>
  <trk>
    <name><![CDATA[PtDuch-Tallende]]></name>
    <extensions>
      <line xmlns="http://www.topografix.com/GPX/gpx_style/0/2">
        <color>0000FF</color>
        <width>4</width>
      </line>
    </extensions>
    <trkseg>
      <trkpt lat="45.8034" lon="3.24994">
        <ele>362.7998</ele>
        <time>2022-07-03T06:00:45+00:00</time>
      </trkpt>
      <trkpt lat="45.80327" lon="3.25015">
        <ele>362.1006</ele>
        <time>2022-07-03T06:00:49+00:00</time>
      </trkpt>
      <trkpt lat="45.80296" lon="3.25028">
        <ele>361.1006</ele>
        <time>2022-07-03T06:00:55+00:00</time>
      </trkpt>
      <trkpt lat="45.80289" lon="3.25064">
        <ele>360.2002</ele>
        <time>2022-07-03T06:00:59+00:00</time>
      </trkpt>
      <trkpt lat="45.8028" lon="3.25101">
        <ele>359</ele>
        <time>2022-07-03T06:01:03+00:00</time>
      </trkpt>
      <trkpt lat="45.80273" lon="3.25155">
        <ele>358.2002</ele>
        <time>2022-07-03T06:01:09+00:00</time>
      </trkpt>
      <trkpt lat="45.80267" lon="3.25192">
        <ele>357.5</ele>
        <time>2022-07-03T06:01:13+00:00</time>
      </trkpt>
      <trkpt lat="45.80262" lon="3.25226">
        <ele>356.7998</ele>
        <time>2022-07-03T06:01:17+00:00</time>
      </trkpt>
      <trkpt lat="45.80252" lon="3.25256">
        <ele>355.2998</ele>
        <time>2022-07-03T06:01:23+00:00</time>
      </trkpt>
      <trkpt lat="45.80231" lon="3.25254">
        <ele>354.4004</ele>
        <time>2022-07-03T06:01:27+00:00</time>
      </trkpt>
      <trkpt lat="45.80207" lon="3.25251">
        <ele>353.6006</ele>
        <time>2022-07-03T06:01:31+00:00</time>
      </trkpt>
      <trkpt lat="45.80166" lon="3.25246">
        <ele>353</ele>
        <time>2022-07-03T06:01:37+00:00</time>
      </trkpt>
      <trkpt lat="45.80137" lon="3.25246">
        <ele>351.7998</ele>
        <time>2022-07-03T06:01:41+00:00</time>
      </trkpt>
      <trkpt lat="45.80106" lon="3.25248">
        <ele>350.1006</ele>
        <time>2022-07-03T06:01:45+00:00</time>
      </trkpt>
      <trkpt lat="45.80062" lon="3.25262">
        <ele>347.5</ele>
        <time>2022-07-03T06:01:51+00:00</time>
      </trkpt>
      <trkpt lat="45.80028" lon="3.25276">
        <ele>346.2998</ele>
        <time>2022-07-03T06:01:55+00:00</time>
      </trkpt>
      <trkpt lat="45.79994" lon="3.25291">
        <ele>344.5</ele>
        <time>2022-07-03T06:01:59+00:00</time>
      </trkpt>
      <trkpt lat="45.79961" lon="3.25299">
        <ele>342.9004</ele>
        <time>2022-07-03T06:02:05+00:00</time>
      </trkpt>
      <trkpt lat="45.79952" lon="3.25308">
        <ele>342.2002</ele>
        <time>2022-07-03T06:02:09+00:00</time>
      </trkpt>
      <trkpt lat="45.7993" lon="3.25322">
        <ele>339.9004</ele>
        <time>2022-07-03T06:02:13+00:00</time>
      </trkpt>
      <trkpt lat="45.79881" lon="3.25331">
        <ele>334.7998</ele>
        <time>2022-07-03T06:02:19+00:00</time>
      </trkpt>
      <trkpt lat="45.79847" lon="3.25337">
        <ele>331.2998</ele>
        <time>2022-07-03T06:02:23+00:00</time>
      </trkpt>
      <trkpt lat="45.79826" lon="3.25339">
        <ele>328.7002</ele>
        <time>2022-07-03T06:02:27+00:00</time>
      </trkpt>
      <trkpt lat="45.798" lon="3.25357">
        <ele>325.6006</ele>
        <time>2022-07-03T06:02:33+00:00</time>
      </trkpt>
      <trkpt lat="45.7978" lon="3.25361">
        <ele>320.9004</ele>
        <time>2022-07-03T06:02:37+00:00</time>
      </trkpt>
      <trkpt lat="45.79772" lon="3.25337">
        <ele>320.9004</ele>
        <time>2022-07-03T06:02:41+00:00</time>
      </trkpt>
      <trkpt lat="45.79752" lon="3.25304">
        <ele>311.1006</ele>
        <time>2022-07-03T06:02:47+00:00</time>
      </trkpt>
      <trkpt lat="45.79743" lon="3.25273">
        <ele>308.4004</ele>
        <time>2022-07-03T06:02:51+00:00</time>
      </trkpt>
      <trkpt lat="45.7974" lon="3.25246">
        <ele>310.9004</ele>
        <time>2022-07-03T06:02:55+00:00</time>
      </trkpt>
      <trkpt lat="45.79728" lon="3.252">
        <ele>312.5</ele>
        <time>2022-07-03T06:03:01+00:00</time>
      </trkpt>
      <trkpt lat="45.79712" lon="3.25151">
        <ele>310.1006</ele>
        <time>2022-07-03T06:03:05+00:00</time>
      </trkpt>
      <trkpt lat="45.79686" lon="3.25096">
        <ele>307</ele>
        <time>2022-07-03T06:03:09+00:00</time>
      </trkpt>
      <trkpt lat="45.7964" lon="3.25043">
        <ele>307.6006</ele>
        <time>2022-07-03T06:03:15+00:00</time>
      </trkpt>
      <trkpt lat="45.79614" lon="3.2502">
        <ele>307.5</ele>
        <time>2022-07-03T06:03:19+00:00</time>
      </trkpt>
      <trkpt lat="45.79593" lon="3.24996">
        <ele>308</ele>
        <time>2022-07-03T06:03:23+00:00</time>
      </trkpt>
      <trkpt lat="45.79566" lon="3.24958">
        <ele>307.9004</ele>
        <time>2022-07-03T06:03:29+00:00</time>
      </trkpt>
      <trkpt lat="45.79547" lon="3.24938">
        <ele>308.2002</ele>
        <time>2022-07-03T06:03:33+00:00</time>
      </trkpt>
      <trkpt lat="45.79517" lon="3.24898">
        <ele>308.2002</ele>
        <time>2022-07-03T06:03:39+00:00</time>
      </trkpt>
      <trkpt lat="45.79498" lon="3.24874">
        <ele>308.2002</ele>
        <time>2022-07-03T06:03:43+00:00</time>
      </trkpt>
      <trkpt lat="45.7948" lon="3.2485">
        <ele>308.1006</ele>
        <time>2022-07-03T06:03:47+00:00</time>
      </trkpt>
      <trkpt lat="45.79447" lon="3.24828">
        <ele>308.2998</ele>
        <time>2022-07-03T06:03:53+00:00</time>
      </trkpt>
      <trkpt lat="45.79432" lon="3.24804">
        <ele>308.2998</ele>
        <time>2022-07-03T06:03:57+00:00</time>
      </trkpt>
      <trkpt lat="45.79419" lon="3.24777">
        <ele>308.2998</ele>
        <time>2022-07-03T06:04:01+00:00</time>
      </trkpt>
      <trkpt lat="45.79401" lon="3.24734">
        <ele>308.2998</ele>
        <time>2022-07-03T06:04:07+00:00</time>
      </trkpt>
      <trkpt lat="45.79388" lon="3.24706">
        <ele>308.2002</ele>
        <time>2022-07-03T06:04:11+00:00</time>
      </trkpt>
      <trkpt lat="45.79373" lon="3.2468">
        <ele>308.2998</ele>
        <time>2022-07-03T06:04:15+00:00</time>
      </trkpt>
      <trkpt lat="45.79348" lon="3.24643">
        <ele>308.1006</ele>
        <time>2022-07-03T06:04:21+00:00</time>
      </trkpt>
      <trkpt lat="45.79332" lon="3.24618">
        <ele>308.2998</ele>
        <time>2022-07-03T06:04:25+00:00</time>
      </trkpt>
      <trkpt lat="45.79316" lon="3.24591">
        <ele>308.1006</ele>
        <time>2022-07-03T06:04:29+00:00</time>
      </trkpt>
      <trkpt lat="45.79291" lon="3.24552">
        <ele>308.6006</ele>
        <time>2022-07-03T06:04:35+00:00</time>
      </trkpt>
      <trkpt lat="45.79273" lon="3.24532">
        <ele>309.2998</ele>
        <time>2022-07-03T06:04:39+00:00</time>
      </trkpt>
      <trkpt lat="45.79252" lon="3.24515">
        <ele>309.1006</ele>
        <time>2022-07-03T06:04:43+00:00</time>
      </trkpt>
      <trkpt lat="45.79225" lon="3.24479">
        <ele>309.4004</ele>
        <time>2022-07-03T06:04:49+00:00</time>
      </trkpt>
      <trkpt lat="45.79209" lon="3.24454">
        <ele>309.9004</ele>
        <time>2022-07-03T06:04:53+00:00</time>
      </trkpt>
      <trkpt lat="45.79193" lon="3.24433">
        <ele>309.5</ele>
        <time>2022-07-03T06:04:57+00:00</time>
      </trkpt>
      <trkpt lat="45.79179" lon="3.2439">
        <ele>310.1006</ele>
        <time>2022-07-03T06:05:03+00:00</time>
      </trkpt>
      <trkpt lat="45.79182" lon="3.24357">
        <ele>311.2002</ele>
        <time>2022-07-03T06:05:07+00:00</time>
      </trkpt>
      <trkpt lat="45.79177" lon="3.24332">
        <ele>312.4004</ele>
        <time>2022-07-03T06:05:11+00:00</time>
      </trkpt>
      <trkpt lat="45.79172" lon="3.24297">
        <ele>313.7998</ele>
        <time>2022-07-03T06:05:17+00:00</time>
      </trkpt>
      <trkpt lat="45.79177" lon="3.24273">
        <ele>314.6006</ele>
        <time>2022-07-03T06:05:21+00:00</time>
      </trkpt>
      <trkpt lat="45.79166" lon="3.24266">
        <ele>315.6006</ele>
        <time>2022-07-03T06:05:25+00:00</time>
      </trkpt>
      <trkpt lat="45.79143" lon="3.2426">
        <ele>315.7002</ele>
        <time>2022-07-03T06:05:31+00:00</time>
      </trkpt>
      <trkpt lat="45.79127" lon="3.24257">
        <ele>315.7002</ele>
        <time>2022-07-03T06:05:35+00:00</time>
      </trkpt>
      <trkpt lat="45.79111" lon="3.24255">
        <ele>315.5</ele>
        <time>2022-07-03T06:05:39+00:00</time>
      </trkpt>
      <trkpt lat="45.79086" lon="3.24251">
        <ele>315.1006</ele>
        <time>2022-07-03T06:05:45+00:00</time>
      </trkpt>
      <trkpt lat="45.79067" lon="3.24248">
        <ele>315.9004</ele>
        <time>2022-07-03T06:05:49+00:00</time>
      </trkpt>
      <trkpt lat="45.79049" lon="3.24244">
        <ele>315.7002</ele>
        <time>2022-07-03T06:05:53+00:00</time>
      </trkpt>
      <trkpt lat="45.7902" lon="3.24236">
        <ele>314.7998</ele>
        <time>2022-07-03T06:05:59+00:00</time>
      </trkpt>
      <trkpt lat="45.79001" lon="3.24231">
        <ele>316.4004</ele>
        <time>2022-07-03T06:06:03+00:00</time>
      </trkpt>
      <trkpt lat="45.78981" lon="3.24228">
        <ele>316</ele>
        <time>2022-07-03T06:06:07+00:00</time>
      </trkpt>
      <trkpt lat="45.7895" lon="3.24226">
        <ele>313.7002</ele>
        <time>2022-07-03T06:06:13+00:00</time>
      </trkpt>
      <trkpt lat="45.78928" lon="3.24226">
        <ele>313.1006</ele>
        <time>2022-07-03T06:06:17+00:00</time>
      </trkpt>
      <trkpt lat="45.78898" lon="3.24227">
        <ele>312.5</ele>
        <time>2022-07-03T06:06:23+00:00</time>
      </trkpt>
      <trkpt lat="45.78876" lon="3.24228">
        <ele>309.2002</ele>
        <time>2022-07-03T06:06:27+00:00</time>
      </trkpt>
      <trkpt lat="45.78853" lon="3.24231">
        <ele>309.5</ele>
        <time>2022-07-03T06:06:31+00:00</time>
      </trkpt>
      <trkpt lat="45.78821" lon="3.24226">
        <ele>309.9004</ele>
        <time>2022-07-03T06:06:37+00:00</time>
      </trkpt>
      <trkpt lat="45.78821" lon="3.24213">
        <ele>312.7002</ele>
        <time>2022-07-03T06:06:41+00:00</time>
      </trkpt>
      <trkpt lat="45.78826" lon="3.24185">
        <ele>316.1006</ele>
        <time>2022-07-03T06:06:45+00:00</time>
      </trkpt>
      <trkpt lat="45.78826" lon="3.24138">
        <ele>321.2002</ele>
        <time>2022-07-03T06:06:51+00:00</time>
      </trkpt>
      <trkpt lat="45.78827" lon="3.24106">
        <ele>321.7998</ele>
        <time>2022-07-03T06:06:55+00:00</time>
      </trkpt>
      <trkpt lat="45.78828" lon="3.24075">
        <ele>322.1006</ele>
        <time>2022-07-03T06:06:59+00:00</time>
      </trkpt>
      <trkpt lat="45.78829" lon="3.24028">
        <ele>322.7002</ele>
        <time>2022-07-03T06:07:05+00:00</time>
      </trkpt>
      <trkpt lat="45.78831" lon="3.23996">
        <ele>322.9004</ele>
        <time>2022-07-03T06:07:09+00:00</time>
      </trkpt>
      <trkpt lat="45.78832" lon="3.23964">
        <ele>323.6006</ele>
        <time>2022-07-03T06:07:13+00:00</time>
      </trkpt>
      <trkpt lat="45.78833" lon="3.23918">
        <ele>324.6006</ele>
        <time>2022-07-03T06:07:19+00:00</time>
      </trkpt>
      <trkpt lat="45.78834" lon="3.2389">
        <ele>324.5</ele>
        <time>2022-07-03T06:07:23+00:00</time>
      </trkpt>
      <trkpt lat="45.78836" lon="3.23865">
        <ele>324.2002</ele>
        <time>2022-07-03T06:07:27+00:00</time>
      </trkpt>
      <trkpt lat="45.78841" lon="3.23835">
        <ele>323.9004</ele>
        <time>2022-07-03T06:07:33+00:00</time>
      </trkpt>
      <trkpt lat="45.78842" lon="3.23806">
        <ele>323.9004</ele>
        <time>2022-07-03T06:07:37+00:00</time>
      </trkpt>
      <trkpt lat="45.78845" lon="3.23775">
        <ele>323.9004</ele>
        <time>2022-07-03T06:07:41+00:00</time>
      </trkpt>
      <trkpt lat="45.78847" lon="3.23729">
        <ele>324.2002</ele>
        <time>2022-07-03T06:07:47+00:00</time>
      </trkpt>
      <trkpt lat="45.78848" lon="3.23698">
        <ele>324.7998</ele>
        <time>2022-07-03T06:07:51+00:00</time>
      </trkpt>
      <trkpt lat="45.78849" lon="3.23669">
        <ele>325</ele>
        <time>2022-07-03T06:07:55+00:00</time>
      </trkpt>
      <trkpt lat="45.78851" lon="3.23624">
        <ele>325.4004</ele>
        <time>2022-07-03T06:08:01+00:00</time>
      </trkpt>
      <trkpt lat="45.78852" lon="3.23594">
        <ele>325.6006</ele>
        <time>2022-07-03T06:08:05+00:00</time>
      </trkpt>
      <trkpt lat="45.78853" lon="3.23565">
        <ele>325.7998</ele>
        <time>2022-07-03T06:08:09+00:00</time>
      </trkpt>
      <trkpt lat="45.78856" lon="3.23525">
        <ele>327.2002</ele>
        <time>2022-07-03T06:08:15+00:00</time>
      </trkpt>
      <trkpt lat="45.78856" lon="3.23498">
        <ele>327.7002</ele>
        <time>2022-07-03T06:08:19+00:00</time>
      </trkpt>
      <trkpt lat="45.78858" lon="3.23471">
        <ele>328.7998</ele>
        <time>2022-07-03T06:08:23+00:00</time>
      </trkpt>
      <trkpt lat="45.7886" lon="3.23433">
        <ele>329.9004</ele>
        <time>2022-07-03T06:08:29+00:00</time>
      </trkpt>
      <trkpt lat="45.78861" lon="3.23408">
        <ele>331.2998</ele>
        <time>2022-07-03T06:08:33+00:00</time>
      </trkpt>
      <trkpt lat="45.78861" lon="3.23384">
        <ele>332</ele>
        <time>2022-07-03T06:08:37+00:00</time>
      </trkpt>
      <trkpt lat="45.7886" lon="3.23353">
        <ele>333.5</ele>
        <time>2022-07-03T06:08:43+00:00</time>
      </trkpt>
      <trkpt lat="45.7886" lon="3.23333">
        <ele>334.2998</ele>
        <time>2022-07-03T06:08:47+00:00</time>
      </trkpt>
      <trkpt lat="45.78858" lon="3.23312">
        <ele>334.7998</ele>
        <time>2022-07-03T06:08:51+00:00</time>
      </trkpt>
      <trkpt lat="45.78858" lon="3.23286">
        <ele>336.4004</ele>
        <time>2022-07-03T06:08:57+00:00</time>
      </trkpt>
      <trkpt lat="45.78857" lon="3.2327">
        <ele>337.1006</ele>
        <time>2022-07-03T06:09:01+00:00</time>
      </trkpt>
      <trkpt lat="45.78855" lon="3.23254">
        <ele>338</ele>
        <time>2022-07-03T06:09:05+00:00</time>
      </trkpt>
      <trkpt lat="45.78853" lon="3.23231">
        <ele>339</ele>
        <time>2022-07-03T06:09:11+00:00</time>
      </trkpt>
      <trkpt lat="45.78854" lon="3.23215">
        <ele>339.9004</ele>
        <time>2022-07-03T06:09:15+00:00</time>
      </trkpt>
      <trkpt lat="45.78855" lon="3.23193">
        <ele>340.9004</ele>
        <time>2022-07-03T06:09:21+00:00</time>
      </trkpt>
      <trkpt lat="45.78855" lon="3.23177">
        <ele>341.7002</ele>
        <time>2022-07-03T06:09:25+00:00</time>
      </trkpt>
      <trkpt lat="45.78855" lon="3.2316">
        <ele>342.5</ele>
        <time>2022-07-03T06:09:29+00:00</time>
      </trkpt>
      <trkpt lat="45.78855" lon="3.23134">
        <ele>343.9004</ele>
        <time>2022-07-03T06:09:35+00:00</time>
      </trkpt>
      <trkpt lat="45.78854" lon="3.23117">
        <ele>344.4004</ele>
        <time>2022-07-03T06:09:39+00:00</time>
      </trkpt>
      <trkpt lat="45.78853" lon="3.231">
        <ele>344.9004</ele>
        <time>2022-07-03T06:09:43+00:00</time>
      </trkpt>
      <trkpt lat="45.78852" lon="3.23076">
        <ele>345.2998</ele>
        <time>2022-07-03T06:09:49+00:00</time>
      </trkpt>
      <trkpt lat="45.78854" lon="3.23059">
        <ele>345.5</ele>
        <time>2022-07-03T06:09:53+00:00</time>
      </trkpt>
      <trkpt lat="45.78848" lon="3.23044">
        <ele>345.5</ele>
        <time>2022-07-03T06:09:57+00:00</time>
      </trkpt>
      <trkpt lat="45.78832" lon="3.23031">
        <ele>346.9004</ele>
        <time>2022-07-03T06:10:03+00:00</time>
      </trkpt>
      <trkpt lat="45.7882" lon="3.23024">
        <ele>347.6006</ele>
        <time>2022-07-03T06:10:07+00:00</time>
      </trkpt>
      <trkpt lat="45.78809" lon="3.23018">
        <ele>348.2998</ele>
        <time>2022-07-03T06:10:11+00:00</time>
      </trkpt>
      <trkpt lat="45.78791" lon="3.2301">
        <ele>349.2002</ele>
        <time>2022-07-03T06:10:17+00:00</time>
      </trkpt>
      <trkpt lat="45.78778" lon="3.23003">
        <ele>349.7998</ele>
        <time>2022-07-03T06:10:21+00:00</time>
      </trkpt>
      <trkpt lat="45.78766" lon="3.22997">
        <ele>350.4004</ele>
        <time>2022-07-03T06:10:25+00:00</time>
      </trkpt>
      <trkpt lat="45.78747" lon="3.22988">
        <ele>351.4004</ele>
        <time>2022-07-03T06:10:31+00:00</time>
      </trkpt>
      <trkpt lat="45.78735" lon="3.22982">
        <ele>351.7998</ele>
        <time>2022-07-03T06:10:35+00:00</time>
      </trkpt>
      <trkpt lat="45.78723" lon="3.22977">
        <ele>352.2998</ele>
        <time>2022-07-03T06:10:39+00:00</time>
      </trkpt>
      <trkpt lat="45.78705" lon="3.2297">
        <ele>352.6006</ele>
        <time>2022-07-03T06:10:45+00:00</time>
      </trkpt>
      <trkpt lat="45.78692" lon="3.22964">
        <ele>353.2998</ele>
        <time>2022-07-03T06:10:49+00:00</time>
      </trkpt>
      <trkpt lat="45.78681" lon="3.22957">
        <ele>353.7002</ele>
        <time>2022-07-03T06:10:53+00:00</time>
      </trkpt>
      <trkpt lat="45.78663" lon="3.22951">
        <ele>354.7998</ele>
        <time>2022-07-03T06:10:59+00:00</time>
      </trkpt>
      <trkpt lat="45.78652" lon="3.22945">
        <ele>356.2998</ele>
        <time>2022-07-03T06:11:03+00:00</time>
      </trkpt>
      <trkpt lat="45.78641" lon="3.2294">
        <ele>357</ele>
        <time>2022-07-03T06:11:07+00:00</time>
      </trkpt>
      <trkpt lat="45.78625" lon="3.22934">
        <ele>358.1006</ele>
        <time>2022-07-03T06:11:13+00:00</time>
      </trkpt>
      <trkpt lat="45.78615" lon="3.2293">
        <ele>359.2998</ele>
        <time>2022-07-03T06:11:17+00:00</time>
      </trkpt>
      <trkpt lat="45.78606" lon="3.22924">
        <ele>361.6006</ele>
        <time>2022-07-03T06:11:21+00:00</time>
      </trkpt>
      <trkpt lat="45.78591" lon="3.22917">
        <ele>363</ele>
        <time>2022-07-03T06:11:27+00:00</time>
      </trkpt>
      <trkpt lat="45.78581" lon="3.22913">
        <ele>364.4004</ele>
        <time>2022-07-03T06:11:31+00:00</time>
      </trkpt>
      <trkpt lat="45.78573" lon="3.2291">
        <ele>365.4004</ele>
        <time>2022-07-03T06:11:35+00:00</time>
      </trkpt>
      <trkpt lat="45.7856" lon="3.22901">
        <ele>367.7002</ele>
        <time>2022-07-03T06:11:41+00:00</time>
      </trkpt>
      <trkpt lat="45.7855" lon="3.22895">
        <ele>367.7002</ele>
        <time>2022-07-03T06:11:45+00:00</time>
      </trkpt>
      <trkpt lat="45.78541" lon="3.2289">
        <ele>369.5</ele>
        <time>2022-07-03T06:11:49+00:00</time>
      </trkpt>
      <trkpt lat="45.78527" lon="3.22881">
        <ele>370.4004</ele>
        <time>2022-07-03T06:11:55+00:00</time>
      </trkpt>
      <trkpt lat="45.78518" lon="3.22875">
        <ele>371.2002</ele>
        <time>2022-07-03T06:11:59+00:00</time>
      </trkpt>
      <trkpt lat="45.78504" lon="3.22865">
        <ele>371.7998</ele>
        <time>2022-07-03T06:12:05+00:00</time>
      </trkpt>
      <trkpt lat="45.78495" lon="3.22857">
        <ele>372.4004</ele>
        <time>2022-07-03T06:12:09+00:00</time>
      </trkpt>
      <trkpt lat="45.78485" lon="3.2285">
        <ele>372.9004</ele>
        <time>2022-07-03T06:12:13+00:00</time>
      </trkpt>
      <trkpt lat="45.78473" lon="3.22837">
        <ele>373.7998</ele>
        <time>2022-07-03T06:12:19+00:00</time>
      </trkpt>
      <trkpt lat="45.78465" lon="3.22828">
        <ele>373.7998</ele>
        <time>2022-07-03T06:12:23+00:00</time>
      </trkpt>
      <trkpt lat="45.78457" lon="3.22819">
        <ele>374.7002</ele>
        <time>2022-07-03T06:12:27+00:00</time>
      </trkpt>
      <trkpt lat="45.78445" lon="3.22803">
        <ele>375.4004</ele>
        <time>2022-07-03T06:12:33+00:00</time>
      </trkpt>
      <trkpt lat="45.78437" lon="3.22792">
        <ele>375.6006</ele>
        <time>2022-07-03T06:12:37+00:00</time>
      </trkpt>
      <trkpt lat="45.7843" lon="3.22781">
        <ele>375.6006</ele>
        <time>2022-07-03T06:12:41+00:00</time>
      </trkpt>
      <trkpt lat="45.78418" lon="3.22766">
        <ele>375.7002</ele>
        <time>2022-07-03T06:12:47+00:00</time>
      </trkpt>
      <trkpt lat="45.78411" lon="3.22754">
        <ele>376</ele>
        <time>2022-07-03T06:12:51+00:00</time>
      </trkpt>
      <trkpt lat="45.78402" lon="3.22742">
        <ele>376</ele>
        <time>2022-07-03T06:12:55+00:00</time>
      </trkpt>
      <trkpt lat="45.78391" lon="3.22726">
        <ele>376.5</ele>
        <time>2022-07-03T06:13:01+00:00</time>
      </trkpt>
      <trkpt lat="45.78383" lon="3.22714">
        <ele>377</ele>
        <time>2022-07-03T06:13:05+00:00</time>
      </trkpt>
      <trkpt lat="45.78376" lon="3.22702">
        <ele>377.7998</ele>
        <time>2022-07-03T06:13:09+00:00</time>
      </trkpt>
      <trkpt lat="45.78364" lon="3.22683">
        <ele>378.5</ele>
        <time>2022-07-03T06:13:15+00:00</time>
      </trkpt>
      <trkpt lat="45.78357" lon="3.22669">
        <ele>378.7998</ele>
        <time>2022-07-03T06:13:19+00:00</time>
      </trkpt>
      <trkpt lat="45.78349" lon="3.22658">
        <ele>378.7998</ele>
        <time>2022-07-03T06:13:23+00:00</time>
      </trkpt>
      <trkpt lat="45.78335" lon="3.22642">
        <ele>379</ele>
        <time>2022-07-03T06:13:29+00:00</time>
      </trkpt>
      <trkpt lat="45.78325" lon="3.22631">
        <ele>379.2002</ele>
        <time>2022-07-03T06:13:33+00:00</time>
      </trkpt>
      <trkpt lat="45.78314" lon="3.22621">
        <ele>379.1006</ele>
        <time>2022-07-03T06:13:37+00:00</time>
      </trkpt>
      <trkpt lat="45.78296" lon="3.22606">
        <ele>378.7998</ele>
        <time>2022-07-03T06:13:43+00:00</time>
      </trkpt>
      <trkpt lat="45.78283" lon="3.22595">
        <ele>378.7002</ele>
        <time>2022-07-03T06:13:47+00:00</time>
      </trkpt>
      <trkpt lat="45.78269" lon="3.22586">
        <ele>378.5</ele>
        <time>2022-07-03T06:13:51+00:00</time>
      </trkpt>
      <trkpt lat="45.78241" lon="3.22574">
        <ele>377.7998</ele>
        <time>2022-07-03T06:13:57+00:00</time>
      </trkpt>
      <trkpt lat="45.78218" lon="3.22566">
        <ele>377.1006</ele>
        <time>2022-07-03T06:14:01+00:00</time>
      </trkpt>
      <trkpt lat="45.78195" lon="3.22555">
        <ele>376.2998</ele>
        <time>2022-07-03T06:14:05+00:00</time>
      </trkpt>
      <trkpt lat="45.7816" lon="3.2254">
        <ele>374.7998</ele>
        <time>2022-07-03T06:14:11+00:00</time>
      </trkpt>
      <trkpt lat="45.78139" lon="3.22531">
        <ele>373.9004</ele>
        <time>2022-07-03T06:14:15+00:00</time>
      </trkpt>
      <trkpt lat="45.78119" lon="3.22523">
        <ele>373.4004</ele>
        <time>2022-07-03T06:14:19+00:00</time>
      </trkpt>
      <trkpt lat="45.78089" lon="3.2251">
        <ele>372.2998</ele>
        <time>2022-07-03T06:14:25+00:00</time>
      </trkpt>
      <trkpt lat="45.78069" lon="3.225">
        <ele>371.7002</ele>
        <time>2022-07-03T06:14:29+00:00</time>
      </trkpt>
      <trkpt lat="45.78048" lon="3.22491">
        <ele>371.4004</ele>
        <time>2022-07-03T06:14:33+00:00</time>
      </trkpt>
      <trkpt lat="45.78017" lon="3.22478">
        <ele>370.5</ele>
        <time>2022-07-03T06:14:39+00:00</time>
      </trkpt>
      <trkpt lat="45.77998" lon="3.2247">
        <ele>370</ele>
        <time>2022-07-03T06:14:43+00:00</time>
      </trkpt>
      <trkpt lat="45.7798" lon="3.22461">
        <ele>369.7998</ele>
        <time>2022-07-03T06:14:47+00:00</time>
      </trkpt>
      <trkpt lat="45.77983" lon="3.22422">
        <ele>369.7002</ele>
        <time>2022-07-03T06:14:53+00:00</time>
      </trkpt>
      <trkpt lat="45.77991" lon="3.22395">
        <ele>369.5</ele>
        <time>2022-07-03T06:14:57+00:00</time>
      </trkpt>
      <trkpt lat="45.78003" lon="3.22357">
        <ele>369.1006</ele>
        <time>2022-07-03T06:15:03+00:00</time>
      </trkpt>
      <trkpt lat="45.78011" lon="3.22329">
        <ele>369</ele>
        <time>2022-07-03T06:15:07+00:00</time>
      </trkpt>
      <trkpt lat="45.78021" lon="3.22301">
        <ele>368.4004</ele>
        <time>2022-07-03T06:15:11+00:00</time>
      </trkpt>
      <trkpt lat="45.78035" lon="3.22257">
        <ele>368</ele>
        <time>2022-07-03T06:15:17+00:00</time>
      </trkpt>
      <trkpt lat="45.78042" lon="3.22226">
        <ele>367.9004</ele>
        <time>2022-07-03T06:15:21+00:00</time>
      </trkpt>
      <trkpt lat="45.78045" lon="3.22194">
        <ele>367.7002</ele>
        <time>2022-07-03T06:15:25+00:00</time>
      </trkpt>
      <trkpt lat="45.78019" lon="3.22169">
        <ele>366.7998</ele>
        <time>2022-07-03T06:15:31+00:00</time>
      </trkpt>
      <trkpt lat="45.77998" lon="3.22158">
        <ele>366.7998</ele>
        <time>2022-07-03T06:15:35+00:00</time>
      </trkpt>
      <trkpt lat="45.77979" lon="3.22147">
        <ele>366.2998</ele>
        <time>2022-07-03T06:15:39+00:00</time>
      </trkpt>
      <trkpt lat="45.77953" lon="3.22131">
        <ele>366.2002</ele>
        <time>2022-07-03T06:15:45+00:00</time>
      </trkpt>
      <trkpt lat="45.77936" lon="3.2212">
        <ele>366.6006</ele>
        <time>2022-07-03T06:15:49+00:00</time>
      </trkpt>
      <trkpt lat="45.77919" lon="3.2211">
        <ele>366.9004</ele>
        <time>2022-07-03T06:15:53+00:00</time>
      </trkpt>
      <trkpt lat="45.77893" lon="3.22093">
        <ele>367.5</ele>
        <time>2022-07-03T06:15:59+00:00</time>
      </trkpt>
      <trkpt lat="45.77875" lon="3.2208">
        <ele>367.7002</ele>
        <time>2022-07-03T06:16:03+00:00</time>
      </trkpt>
      <trkpt lat="45.7786" lon="3.22068">
        <ele>367.6006</ele>
        <time>2022-07-03T06:16:07+00:00</time>
      </trkpt>
      <trkpt lat="45.77833" lon="3.22054">
        <ele>367.6006</ele>
        <time>2022-07-03T06:16:13+00:00</time>
      </trkpt>
      <trkpt lat="45.77816" lon="3.22044">
        <ele>367.5</ele>
        <time>2022-07-03T06:16:17+00:00</time>
      </trkpt>
      <trkpt lat="45.77799" lon="3.22033">
        <ele>367.4004</ele>
        <time>2022-07-03T06:16:21+00:00</time>
      </trkpt>
      <trkpt lat="45.77777" lon="3.22016">
        <ele>367.5</ele>
        <time>2022-07-03T06:16:27+00:00</time>
      </trkpt>
      <trkpt lat="45.7776" lon="3.22005">
        <ele>367.7002</ele>
        <time>2022-07-03T06:16:31+00:00</time>
      </trkpt>
      <trkpt lat="45.77742" lon="3.21997">
        <ele>368.4004</ele>
        <time>2022-07-03T06:16:35+00:00</time>
      </trkpt>
      <trkpt lat="45.77717" lon="3.21986">
        <ele>369.5</ele>
        <time>2022-07-03T06:16:41+00:00</time>
      </trkpt>
      <trkpt lat="45.777" lon="3.21977">
        <ele>369.7998</ele>
        <time>2022-07-03T06:16:45+00:00</time>
      </trkpt>
      <trkpt lat="45.77684" lon="3.21968">
        <ele>370.1006</ele>
        <time>2022-07-03T06:16:49+00:00</time>
      </trkpt>
      <trkpt lat="45.77657" lon="3.21955">
        <ele>370.6006</ele>
        <time>2022-07-03T06:16:55+00:00</time>
      </trkpt>
      <trkpt lat="45.7764" lon="3.21946">
        <ele>370</ele>
        <time>2022-07-03T06:16:59+00:00</time>
      </trkpt>
      <trkpt lat="45.77623" lon="3.21934">
        <ele>369.2998</ele>
        <time>2022-07-03T06:17:03+00:00</time>
      </trkpt>
      <trkpt lat="45.77598" lon="3.2192">
        <ele>368.9004</ele>
        <time>2022-07-03T06:17:09+00:00</time>
      </trkpt>
      <trkpt lat="45.77583" lon="3.21917">
        <ele>368.7002</ele>
        <time>2022-07-03T06:17:13+00:00</time>
      </trkpt>
      <trkpt lat="45.77567" lon="3.2191">
        <ele>368.2002</ele>
        <time>2022-07-03T06:17:17+00:00</time>
      </trkpt>
      <trkpt lat="45.77541" lon="3.21907">
        <ele>368.1006</ele>
        <time>2022-07-03T06:17:23+00:00</time>
      </trkpt>
      <trkpt lat="45.77523" lon="3.21904">
        <ele>368.1006</ele>
        <time>2022-07-03T06:17:27+00:00</time>
      </trkpt>
      <trkpt lat="45.77505" lon="3.21899">
        <ele>367.9004</ele>
        <time>2022-07-03T06:17:31+00:00</time>
      </trkpt>
      <trkpt lat="45.77478" lon="3.21889">
        <ele>366.9004</ele>
        <time>2022-07-03T06:17:37+00:00</time>
      </trkpt>
      <trkpt lat="45.77461" lon="3.21881">
        <ele>366</ele>
        <time>2022-07-03T06:17:41+00:00</time>
      </trkpt>
      <trkpt lat="45.77437" lon="3.21876">
        <ele>364.6006</ele>
        <time>2022-07-03T06:17:47+00:00</time>
      </trkpt>
      <trkpt lat="45.7742" lon="3.21871">
        <ele>364</ele>
        <time>2022-07-03T06:17:51+00:00</time>
      </trkpt>
      <trkpt lat="45.77402" lon="3.21865">
        <ele>363.9004</ele>
        <time>2022-07-03T06:17:55+00:00</time>
      </trkpt>
      <trkpt lat="45.77374" lon="3.21857">
        <ele>363.2998</ele>
        <time>2022-07-03T06:18:01+00:00</time>
      </trkpt>
      <trkpt lat="45.77355" lon="3.21851">
        <ele>363.2002</ele>
        <time>2022-07-03T06:18:05+00:00</time>
      </trkpt>
      <trkpt lat="45.77336" lon="3.21847">
        <ele>362.7002</ele>
        <time>2022-07-03T06:18:09+00:00</time>
      </trkpt>
      <trkpt lat="45.77308" lon="3.21839">
        <ele>363.2002</ele>
        <time>2022-07-03T06:18:15+00:00</time>
      </trkpt>
      <trkpt lat="45.77292" lon="3.21831">
        <ele>363.6006</ele>
        <time>2022-07-03T06:18:19+00:00</time>
      </trkpt>
      <trkpt lat="45.77276" lon="3.21826">
        <ele>363.6006</ele>
        <time>2022-07-03T06:18:23+00:00</time>
      </trkpt>
      <trkpt lat="45.77254" lon="3.21822">
        <ele>363.6006</ele>
        <time>2022-07-03T06:18:29+00:00</time>
      </trkpt>
      <trkpt lat="45.77242" lon="3.21818">
        <ele>363.7002</ele>
        <time>2022-07-03T06:18:33+00:00</time>
      </trkpt>
      <trkpt lat="45.7723" lon="3.21814">
        <ele>364</ele>
        <time>2022-07-03T06:18:37+00:00</time>
      </trkpt>
      <trkpt lat="45.77214" lon="3.21808">
        <ele>364.4004</ele>
        <time>2022-07-03T06:18:43+00:00</time>
      </trkpt>
      <trkpt lat="45.77203" lon="3.21803">
        <ele>365.5</ele>
        <time>2022-07-03T06:18:47+00:00</time>
      </trkpt>
      <trkpt lat="45.77192" lon="3.21799">
        <ele>367.1006</ele>
        <time>2022-07-03T06:18:51+00:00</time>
      </trkpt>
      <trkpt lat="45.77176" lon="3.21792">
        <ele>369.1006</ele>
        <time>2022-07-03T06:18:57+00:00</time>
      </trkpt>
      <trkpt lat="45.77166" lon="3.21789">
        <ele>371.5</ele>
        <time>2022-07-03T06:19:01+00:00</time>
      </trkpt>
      <trkpt lat="45.77156" lon="3.21785">
        <ele>373.7998</ele>
        <time>2022-07-03T06:19:05+00:00</time>
      </trkpt>
      <trkpt lat="45.77142" lon="3.21779">
        <ele>376.6006</ele>
        <time>2022-07-03T06:19:11+00:00</time>
      </trkpt>
      <trkpt lat="45.77133" lon="3.21775">
        <ele>378.5</ele>
        <time>2022-07-03T06:19:15+00:00</time>
      </trkpt>
      <trkpt lat="45.77125" lon="3.21772">
        <ele>378.5</ele>
        <time>2022-07-03T06:19:19+00:00</time>
      </trkpt>
      <trkpt lat="45.77111" lon="3.21767">
        <ele>381.2002</ele>
        <time>2022-07-03T06:19:25+00:00</time>
      </trkpt>
      <trkpt lat="45.77102" lon="3.21764">
        <ele>381.2002</ele>
        <time>2022-07-03T06:19:29+00:00</time>
      </trkpt>
      <trkpt lat="45.77093" lon="3.21761">
        <ele>381.9004</ele>
        <time>2022-07-03T06:19:33+00:00</time>
      </trkpt>
      <trkpt lat="45.7708" lon="3.21753">
        <ele>382.5</ele>
        <time>2022-07-03T06:19:39+00:00</time>
      </trkpt>
      <trkpt lat="45.77072" lon="3.2175">
        <ele>383</ele>
        <time>2022-07-03T06:19:43+00:00</time>
      </trkpt>
      <trkpt lat="45.77064" lon="3.21747">
        <ele>383.2998</ele>
        <time>2022-07-03T06:19:47+00:00</time>
      </trkpt>
      <trkpt lat="45.7705" lon="3.21742">
        <ele>383.5</ele>
        <time>2022-07-03T06:19:53+00:00</time>
      </trkpt>
      <trkpt lat="45.77042" lon="3.21738">
        <ele>383.5</ele>
        <time>2022-07-03T06:19:57+00:00</time>
      </trkpt>
      <trkpt lat="45.77033" lon="3.21733">
        <ele>383.5</ele>
        <time>2022-07-03T06:20:01+00:00</time>
      </trkpt>
      <trkpt lat="45.77018" lon="3.21728">
        <ele>384</ele>
        <time>2022-07-03T06:20:07+00:00</time>
      </trkpt>
      <trkpt lat="45.77008" lon="3.21723">
        <ele>384.6006</ele>
        <time>2022-07-03T06:20:11+00:00</time>
      </trkpt>
      <trkpt lat="45.76999" lon="3.21719">
        <ele>385.1006</ele>
        <time>2022-07-03T06:20:15+00:00</time>
      </trkpt>
      <trkpt lat="45.76983" lon="3.21713">
        <ele>385.7002</ele>
        <time>2022-07-03T06:20:21+00:00</time>
      </trkpt>
      <trkpt lat="45.76971" lon="3.21709">
        <ele>386.4004</ele>
        <time>2022-07-03T06:20:25+00:00</time>
      </trkpt>
      <trkpt lat="45.7696" lon="3.21703">
        <ele>386.7998</ele>
        <time>2022-07-03T06:20:29+00:00</time>
      </trkpt>
      <trkpt lat="45.76942" lon="3.21695">
        <ele>387.2002</ele>
        <time>2022-07-03T06:20:35+00:00</time>
      </trkpt>
      <trkpt lat="45.76929" lon="3.21688">
        <ele>387.2998</ele>
        <time>2022-07-03T06:20:39+00:00</time>
      </trkpt>
      <trkpt lat="45.76909" lon="3.2168">
        <ele>387.4004</ele>
        <time>2022-07-03T06:20:45+00:00</time>
      </trkpt>
      <trkpt lat="45.76895" lon="3.21675">
        <ele>387</ele>
        <time>2022-07-03T06:20:49+00:00</time>
      </trkpt>
      <trkpt lat="45.7688" lon="3.21668">
        <ele>386.7998</ele>
        <time>2022-07-03T06:20:53+00:00</time>
      </trkpt>
      <trkpt lat="45.76857" lon="3.21653">
        <ele>386.2002</ele>
        <time>2022-07-03T06:20:59+00:00</time>
      </trkpt>
      <trkpt lat="45.7684" lon="3.21653">
        <ele>386.1006</ele>
        <time>2022-07-03T06:21:03+00:00</time>
      </trkpt>
      <trkpt lat="45.76827" lon="3.2167">
        <ele>385.9004</ele>
        <time>2022-07-03T06:21:07+00:00</time>
      </trkpt>
      <trkpt lat="45.7681" lon="3.217">
        <ele>385.1006</ele>
        <time>2022-07-03T06:21:13+00:00</time>
      </trkpt>
      <trkpt lat="45.76803" lon="3.21727">
        <ele>384.7002</ele>
        <time>2022-07-03T06:21:17+00:00</time>
      </trkpt>
      <trkpt lat="45.76801" lon="3.21759">
        <ele>383.9004</ele>
        <time>2022-07-03T06:21:21+00:00</time>
      </trkpt>
      <trkpt lat="45.76785" lon="3.2181">
        <ele>381.9004</ele>
        <time>2022-07-03T06:21:27+00:00</time>
      </trkpt>
      <trkpt lat="45.76784" lon="3.21846">
        <ele>380.4004</ele>
        <time>2022-07-03T06:21:31+00:00</time>
      </trkpt>
      <trkpt lat="45.76778" lon="3.21882">
        <ele>378.9004</ele>
        <time>2022-07-03T06:21:35+00:00</time>
      </trkpt>
      <trkpt lat="45.76769" lon="3.2194">
        <ele>376.1006</ele>
        <time>2022-07-03T06:21:41+00:00</time>
      </trkpt>
      <trkpt lat="45.76767" lon="3.21982">
        <ele>374.1006</ele>
        <time>2022-07-03T06:21:45+00:00</time>
      </trkpt>
      <trkpt lat="45.76746" lon="3.21996">
        <ele>372.9004</ele>
        <time>2022-07-03T06:21:49+00:00</time>
      </trkpt>
      <trkpt lat="45.76715" lon="3.21978">
        <ele>374.1006</ele>
        <time>2022-07-03T06:21:55+00:00</time>
      </trkpt>
      <trkpt lat="45.767" lon="3.21969">
        <ele>374.1006</ele>
        <time>2022-07-03T06:21:59+00:00</time>
      </trkpt>
      <trkpt lat="45.76684" lon="3.21959">
        <ele>375.2002</ele>
        <time>2022-07-03T06:22:03+00:00</time>
      </trkpt>
      <trkpt lat="45.76663" lon="3.21947">
        <ele>376.2002</ele>
        <time>2022-07-03T06:22:09+00:00</time>
      </trkpt>
      <trkpt lat="45.76656" lon="3.21943">
        <ele>376.2998</ele>
        <time>2022-07-03T06:22:13+00:00</time>
      </trkpt>
      <trkpt lat="45.76645" lon="3.21939">
        <ele>376.2998</ele>
        <time>2022-07-03T06:22:17+00:00</time>
      </trkpt>
      <trkpt lat="45.76627" lon="3.21929">
        <ele>377.2002</ele>
        <time>2022-07-03T06:22:23+00:00</time>
      </trkpt>
      <trkpt lat="45.76613" lon="3.21921">
        <ele>377.1006</ele>
        <time>2022-07-03T06:22:27+00:00</time>
      </trkpt>
      <trkpt lat="45.76599" lon="3.21913">
        <ele>377.7998</ele>
        <time>2022-07-03T06:22:31+00:00</time>
      </trkpt>
      <trkpt lat="45.76578" lon="3.219">
        <ele>377.1006</ele>
        <time>2022-07-03T06:22:37+00:00</time>
      </trkpt>
      <trkpt lat="45.76565" lon="3.21892">
        <ele>377.6006</ele>
        <time>2022-07-03T06:22:41+00:00</time>
      </trkpt>
      <trkpt lat="45.76554" lon="3.21886">
        <ele>377.2002</ele>
        <time>2022-07-03T06:22:45+00:00</time>
      </trkpt>
      <trkpt lat="45.76532" lon="3.21884">
        <ele>376.7998</ele>
        <time>2022-07-03T06:22:51+00:00</time>
      </trkpt>
      <trkpt lat="45.76518" lon="3.21885">
        <ele>376.7002</ele>
        <time>2022-07-03T06:22:55+00:00</time>
      </trkpt>
      <trkpt lat="45.76504" lon="3.21886">
        <ele>376.6006</ele>
        <time>2022-07-03T06:22:59+00:00</time>
      </trkpt>
      <trkpt lat="45.76484" lon="3.21888">
        <ele>376.7002</ele>
        <time>2022-07-03T06:23:05+00:00</time>
      </trkpt>
      <trkpt lat="45.76471" lon="3.21889">
        <ele>376.7998</ele>
        <time>2022-07-03T06:23:09+00:00</time>
      </trkpt>
      <trkpt lat="45.76457" lon="3.2189">
        <ele>377</ele>
        <time>2022-07-03T06:23:13+00:00</time>
      </trkpt>
      <trkpt lat="45.76437" lon="3.21892">
        <ele>377.6006</ele>
        <time>2022-07-03T06:23:19+00:00</time>
      </trkpt>
      <trkpt lat="45.76423" lon="3.21892">
        <ele>378.2002</ele>
        <time>2022-07-03T06:23:23+00:00</time>
      </trkpt>
      <trkpt lat="45.76417" lon="3.21919">
        <ele>375.5</ele>
        <time>2022-07-03T06:23:29+00:00</time>
      </trkpt>
      <trkpt lat="45.76418" lon="3.2195">
        <ele>373.7998</ele>
        <time>2022-07-03T06:23:33+00:00</time>
      </trkpt>
      <trkpt lat="45.76419" lon="3.21981">
        <ele>371.6006</ele>
        <time>2022-07-03T06:23:37+00:00</time>
      </trkpt>
      <trkpt lat="45.76421" lon="3.22029">
        <ele>369.1006</ele>
        <time>2022-07-03T06:23:43+00:00</time>
      </trkpt>
      <trkpt lat="45.76424" lon="3.22073">
        <ele>366.2998</ele>
        <time>2022-07-03T06:23:47+00:00</time>
      </trkpt>
      <trkpt lat="45.76425" lon="3.22119">
        <ele>364.1006</ele>
        <time>2022-07-03T06:23:51+00:00</time>
      </trkpt>
      <trkpt lat="45.76425" lon="3.22167">
        <ele>361.2002</ele>
        <time>2022-07-03T06:23:57+00:00</time>
      </trkpt>
      <trkpt lat="45.76412" lon="3.22169">
        <ele>361.4004</ele>
        <time>2022-07-03T06:24:01+00:00</time>
      </trkpt>
      <trkpt lat="45.764" lon="3.22168">
        <ele>361.5</ele>
        <time>2022-07-03T06:24:05+00:00</time>
      </trkpt>
      <trkpt lat="45.76379" lon="3.22168">
        <ele>361.7002</ele>
        <time>2022-07-03T06:24:11+00:00</time>
      </trkpt>
      <trkpt lat="45.76366" lon="3.22168">
        <ele>361.7002</ele>
        <time>2022-07-03T06:24:15+00:00</time>
      </trkpt>
      <trkpt lat="45.76352" lon="3.22171">
        <ele>361.7002</ele>
        <time>2022-07-03T06:24:19+00:00</time>
      </trkpt>
      <trkpt lat="45.76333" lon="3.22172">
        <ele>361.7998</ele>
        <time>2022-07-03T06:24:25+00:00</time>
      </trkpt>
      <trkpt lat="45.76319" lon="3.22173">
        <ele>362</ele>
        <time>2022-07-03T06:24:29+00:00</time>
      </trkpt>
      <trkpt lat="45.76307" lon="3.22173">
        <ele>362.2002</ele>
        <time>2022-07-03T06:24:33+00:00</time>
      </trkpt>
      <trkpt lat="45.76289" lon="3.22174">
        <ele>362.4004</ele>
        <time>2022-07-03T06:24:39+00:00</time>
      </trkpt>
      <trkpt lat="45.76277" lon="3.22174">
        <ele>362.6006</ele>
        <time>2022-07-03T06:24:43+00:00</time>
      </trkpt>
      <trkpt lat="45.76266" lon="3.22173">
        <ele>362.7002</ele>
        <time>2022-07-03T06:24:47+00:00</time>
      </trkpt>
      <trkpt lat="45.76254" lon="3.22173">
        <ele>362.6006</ele>
        <time>2022-07-03T06:24:53+00:00</time>
      </trkpt>
      <trkpt lat="45.76245" lon="3.22173">
        <ele>362.4004</ele>
        <time>2022-07-03T06:24:57+00:00</time>
      </trkpt>
      <trkpt lat="45.7624" lon="3.22166">
        <ele>362.4004</ele>
        <time>2022-07-03T06:25:01+00:00</time>
      </trkpt>
      <trkpt lat="45.76242" lon="3.22148">
        <ele>363.1006</ele>
        <time>2022-07-03T06:25:07+00:00</time>
      </trkpt>
      <trkpt lat="45.76243" lon="3.22137">
        <ele>363.7002</ele>
        <time>2022-07-03T06:25:11+00:00</time>
      </trkpt>
      <trkpt lat="45.76244" lon="3.22126">
        <ele>363.7002</ele>
        <time>2022-07-03T06:25:15+00:00</time>
      </trkpt>
      <trkpt lat="45.76246" lon="3.22109">
        <ele>364.6006</ele>
        <time>2022-07-03T06:25:21+00:00</time>
      </trkpt>
      <trkpt lat="45.76248" lon="3.22098">
        <ele>365.2998</ele>
        <time>2022-07-03T06:25:25+00:00</time>
      </trkpt>
      <trkpt lat="45.76248" lon="3.22088">
        <ele>366</ele>
        <time>2022-07-03T06:25:29+00:00</time>
      </trkpt>
      <trkpt lat="45.76248" lon="3.22072">
        <ele>366</ele>
        <time>2022-07-03T06:25:35+00:00</time>
      </trkpt>
      <trkpt lat="45.7625" lon="3.2206">
        <ele>367.2002</ele>
        <time>2022-07-03T06:25:39+00:00</time>
      </trkpt>
      <trkpt lat="45.76249" lon="3.22051">
        <ele>367.7002</ele>
        <time>2022-07-03T06:25:43+00:00</time>
      </trkpt>
      <trkpt lat="45.7625" lon="3.22036">
        <ele>369.4004</ele>
        <time>2022-07-03T06:25:49+00:00</time>
      </trkpt>
      <trkpt lat="45.7625" lon="3.22026">
        <ele>369.4004</ele>
        <time>2022-07-03T06:25:53+00:00</time>
      </trkpt>
      <trkpt lat="45.76251" lon="3.22017">
        <ele>371.2002</ele>
        <time>2022-07-03T06:25:57+00:00</time>
      </trkpt>
      <trkpt lat="45.76254" lon="3.22002">
        <ele>373.2998</ele>
        <time>2022-07-03T06:26:03+00:00</time>
      </trkpt>
      <trkpt lat="45.76251" lon="3.21991">
        <ele>373.2998</ele>
        <time>2022-07-03T06:26:07+00:00</time>
      </trkpt>
      <trkpt lat="45.76247" lon="3.21986">
        <ele>373</ele>
        <time>2022-07-03T06:26:11+00:00</time>
      </trkpt>
      <trkpt lat="45.76242" lon="3.21983">
        <ele>375.2998</ele>
        <time>2022-07-03T06:26:17+00:00</time>
      </trkpt>
      <trkpt lat="45.76241" lon="3.21982">
        <ele>375.2998</ele>
        <time>2022-07-03T06:26:21+00:00</time>
      </trkpt>
      <trkpt lat="45.76235" lon="3.21993">
        <ele>372.6006</ele>
        <time>2022-07-03T06:26:35+00:00</time>
      </trkpt>
      <trkpt lat="45.76217" lon="3.22029">
        <ele>367.7998</ele>
        <time>2022-07-03T06:26:41+00:00</time>
      </trkpt>
      <trkpt lat="45.76195" lon="3.22049">
        <ele>364.6006</ele>
        <time>2022-07-03T06:26:45+00:00</time>
      </trkpt>
      <trkpt lat="45.76176" lon="3.22028">
        <ele>364.4004</ele>
        <time>2022-07-03T06:26:49+00:00</time>
      </trkpt>
      <trkpt lat="45.76148" lon="3.21993">
        <ele>365.7998</ele>
        <time>2022-07-03T06:26:55+00:00</time>
      </trkpt>
      <trkpt lat="45.7613" lon="3.21969">
        <ele>366.5</ele>
        <time>2022-07-03T06:26:59+00:00</time>
      </trkpt>
      <trkpt lat="45.76112" lon="3.21948">
        <ele>367.1006</ele>
        <time>2022-07-03T06:27:03+00:00</time>
      </trkpt>
      <trkpt lat="45.76087" lon="3.21921">
        <ele>364.2998</ele>
        <time>2022-07-03T06:27:09+00:00</time>
      </trkpt>
      <trkpt lat="45.7607" lon="3.21898">
        <ele>361.9004</ele>
        <time>2022-07-03T06:27:13+00:00</time>
      </trkpt>
      <trkpt lat="45.76051" lon="3.21871">
        <ele>360.5</ele>
        <time>2022-07-03T06:27:17+00:00</time>
      </trkpt>
      <trkpt lat="45.76018" lon="3.21815">
        <ele>353.1006</ele>
        <time>2022-07-03T06:27:23+00:00</time>
      </trkpt>
      <trkpt lat="45.7599" lon="3.21775">
        <ele>346.7002</ele>
        <time>2022-07-03T06:27:27+00:00</time>
      </trkpt>
      <trkpt lat="45.75958" lon="3.21737">
        <ele>336.7002</ele>
        <time>2022-07-03T06:27:31+00:00</time>
      </trkpt>
      <trkpt lat="45.75906" lon="3.21687">
        <ele>323.1006</ele>
        <time>2022-07-03T06:27:37+00:00</time>
      </trkpt>
      <trkpt lat="45.75875" lon="3.21657">
        <ele>321.2002</ele>
        <time>2022-07-03T06:27:41+00:00</time>
      </trkpt>
      <trkpt lat="45.75847" lon="3.2163">
        <ele>316.7998</ele>
        <time>2022-07-03T06:27:45+00:00</time>
      </trkpt>
      <trkpt lat="45.75808" lon="3.21592">
        <ele>328.7998</ele>
        <time>2022-07-03T06:27:51+00:00</time>
      </trkpt>
      <trkpt lat="45.75784" lon="3.21569">
        <ele>333.9004</ele>
        <time>2022-07-03T06:27:55+00:00</time>
      </trkpt>
      <trkpt lat="45.7576" lon="3.21544">
        <ele>332.6006</ele>
        <time>2022-07-03T06:27:59+00:00</time>
      </trkpt>
      <trkpt lat="45.75723" lon="3.21515">
        <ele>332.6006</ele>
        <time>2022-07-03T06:28:05+00:00</time>
      </trkpt>
      <trkpt lat="45.75697" lon="3.21501">
        <ele>333</ele>
        <time>2022-07-03T06:28:09+00:00</time>
      </trkpt>
      <trkpt lat="45.75673" lon="3.21487">
        <ele>333.6006</ele>
        <time>2022-07-03T06:28:13+00:00</time>
      </trkpt>
      <trkpt lat="45.75636" lon="3.21466">
        <ele>334.4004</ele>
        <time>2022-07-03T06:28:19+00:00</time>
      </trkpt>
      <trkpt lat="45.75613" lon="3.21451">
        <ele>335.4004</ele>
        <time>2022-07-03T06:28:23+00:00</time>
      </trkpt>
      <trkpt lat="45.7559" lon="3.21437">
        <ele>334.5</ele>
        <time>2022-07-03T06:28:27+00:00</time>
      </trkpt>
      <trkpt lat="45.75557" lon="3.21415">
        <ele>336</ele>
        <time>2022-07-03T06:28:33+00:00</time>
      </trkpt>
      <trkpt lat="45.75537" lon="3.21403">
        <ele>334.7998</ele>
        <time>2022-07-03T06:28:37+00:00</time>
      </trkpt>
      <trkpt lat="45.75516" lon="3.21391">
        <ele>335.5</ele>
        <time>2022-07-03T06:28:41+00:00</time>
      </trkpt>
      <trkpt lat="45.75486" lon="3.21388">
        <ele>334.7998</ele>
        <time>2022-07-03T06:28:47+00:00</time>
      </trkpt>
      <trkpt lat="45.7547" lon="3.21384">
        <ele>335.6006</ele>
        <time>2022-07-03T06:28:51+00:00</time>
      </trkpt>
      <trkpt lat="45.75455" lon="3.21381">
        <ele>335.2002</ele>
        <time>2022-07-03T06:28:55+00:00</time>
      </trkpt>
      <trkpt lat="45.7543" lon="3.21372">
        <ele>334.6006</ele>
        <time>2022-07-03T06:29:01+00:00</time>
      </trkpt>
      <trkpt lat="45.75414" lon="3.21365">
        <ele>336.2998</ele>
        <time>2022-07-03T06:29:05+00:00</time>
      </trkpt>
      <trkpt lat="45.75388" lon="3.21356">
        <ele>335.7002</ele>
        <time>2022-07-03T06:29:11+00:00</time>
      </trkpt>
      <trkpt lat="45.7537" lon="3.21347">
        <ele>337.2002</ele>
        <time>2022-07-03T06:29:15+00:00</time>
      </trkpt>
      <trkpt lat="45.75352" lon="3.21339">
        <ele>336.9004</ele>
        <time>2022-07-03T06:29:19+00:00</time>
      </trkpt>
      <trkpt lat="45.75328" lon="3.21328">
        <ele>338.4004</ele>
        <time>2022-07-03T06:29:25+00:00</time>
      </trkpt>
      <trkpt lat="45.75311" lon="3.21321">
        <ele>337.9004</ele>
        <time>2022-07-03T06:29:29+00:00</time>
      </trkpt>
      <trkpt lat="45.75295" lon="3.21313">
        <ele>339.7998</ele>
        <time>2022-07-03T06:29:33+00:00</time>
      </trkpt>
      <trkpt lat="45.7527" lon="3.21301">
        <ele>339.1006</ele>
        <time>2022-07-03T06:29:39+00:00</time>
      </trkpt>
      <trkpt lat="45.75255" lon="3.21294">
        <ele>340.6006</ele>
        <time>2022-07-03T06:29:43+00:00</time>
      </trkpt>
      <trkpt lat="45.75241" lon="3.21287">
        <ele>340</ele>
        <time>2022-07-03T06:29:47+00:00</time>
      </trkpt>
      <trkpt lat="45.75221" lon="3.21279">
        <ele>341.2998</ele>
        <time>2022-07-03T06:29:53+00:00</time>
      </trkpt>
      <trkpt lat="45.7521" lon="3.21275">
        <ele>340.4004</ele>
        <time>2022-07-03T06:29:57+00:00</time>
      </trkpt>
      <trkpt lat="45.75206" lon="3.21264">
        <ele>341.5</ele>
        <time>2022-07-03T06:30:01+00:00</time>
      </trkpt>
      <trkpt lat="45.75195" lon="3.21236">
        <ele>342.4004</ele>
        <time>2022-07-03T06:30:07+00:00</time>
      </trkpt>
      <trkpt lat="45.75187" lon="3.21214">
        <ele>344.2002</ele>
        <time>2022-07-03T06:30:11+00:00</time>
      </trkpt>
      <trkpt lat="45.75181" lon="3.21196">
        <ele>344.7002</ele>
        <time>2022-07-03T06:30:15+00:00</time>
      </trkpt>
      <trkpt lat="45.75173" lon="3.21173">
        <ele>348.4004</ele>
        <time>2022-07-03T06:30:21+00:00</time>
      </trkpt>
      <trkpt lat="45.75168" lon="3.21157">
        <ele>348.7998</ele>
        <time>2022-07-03T06:30:25+00:00</time>
      </trkpt>
      <trkpt lat="45.75162" lon="3.21139">
        <ele>350.4004</ele>
        <time>2022-07-03T06:30:29+00:00</time>
      </trkpt>
      <trkpt lat="45.75154" lon="3.21112">
        <ele>349.9004</ele>
        <time>2022-07-03T06:30:35+00:00</time>
      </trkpt>
      <trkpt lat="45.7515" lon="3.21094">
        <ele>351.1006</ele>
        <time>2022-07-03T06:30:39+00:00</time>
      </trkpt>
      <trkpt lat="45.75146" lon="3.21075">
        <ele>351.7998</ele>
        <time>2022-07-03T06:30:43+00:00</time>
      </trkpt>
      <trkpt lat="45.75138" lon="3.21048">
        <ele>353</ele>
        <time>2022-07-03T06:30:49+00:00</time>
      </trkpt>
      <trkpt lat="45.75132" lon="3.2103">
        <ele>352.6006</ele>
        <time>2022-07-03T06:30:53+00:00</time>
      </trkpt>
      <trkpt lat="45.75125" lon="3.21013">
        <ele>353.7998</ele>
        <time>2022-07-03T06:30:57+00:00</time>
      </trkpt>
      <trkpt lat="45.75116" lon="3.20986">
        <ele>354.7002</ele>
        <time>2022-07-03T06:31:03+00:00</time>
      </trkpt>
      <trkpt lat="45.7511" lon="3.20968">
        <ele>355</ele>
        <time>2022-07-03T06:31:07+00:00</time>
      </trkpt>
      <trkpt lat="45.75105" lon="3.20952">
        <ele>356.1006</ele>
        <time>2022-07-03T06:31:11+00:00</time>
      </trkpt>
      <trkpt lat="45.75097" lon="3.20925">
        <ele>356.7002</ele>
        <time>2022-07-03T06:31:17+00:00</time>
      </trkpt>
      <trkpt lat="45.75091" lon="3.20908">
        <ele>358</ele>
        <time>2022-07-03T06:31:21+00:00</time>
      </trkpt>
      <trkpt lat="45.75085" lon="3.20891">
        <ele>359.2002</ele>
        <time>2022-07-03T06:31:25+00:00</time>
      </trkpt>
      <trkpt lat="45.75075" lon="3.20868">
        <ele>362.7998</ele>
        <time>2022-07-03T06:31:31+00:00</time>
      </trkpt>
      <trkpt lat="45.75065" lon="3.20858">
        <ele>362.7998</ele>
        <time>2022-07-03T06:31:35+00:00</time>
      </trkpt>
      <trkpt lat="45.75052" lon="3.20852">
        <ele>362.9004</ele>
        <time>2022-07-03T06:31:39+00:00</time>
      </trkpt>
      <trkpt lat="45.7503" lon="3.20847">
        <ele>364.9004</ele>
        <time>2022-07-03T06:31:45+00:00</time>
      </trkpt>
      <trkpt lat="45.75017" lon="3.20844">
        <ele>365</ele>
        <time>2022-07-03T06:31:49+00:00</time>
      </trkpt>
      <trkpt lat="45.75003" lon="3.20842">
        <ele>365.2998</ele>
        <time>2022-07-03T06:31:53+00:00</time>
      </trkpt>
      <trkpt lat="45.74983" lon="3.20838">
        <ele>365.4004</ele>
        <time>2022-07-03T06:31:59+00:00</time>
      </trkpt>
      <trkpt lat="45.74969" lon="3.20833">
        <ele>366.9004</ele>
        <time>2022-07-03T06:32:03+00:00</time>
      </trkpt>
      <trkpt lat="45.74949" lon="3.20826">
        <ele>366.2998</ele>
        <time>2022-07-03T06:32:09+00:00</time>
      </trkpt>
      <trkpt lat="45.74936" lon="3.20822">
        <ele>365.9004</ele>
        <time>2022-07-03T06:32:13+00:00</time>
      </trkpt>
      <trkpt lat="45.74925" lon="3.20818">
        <ele>365.2998</ele>
        <time>2022-07-03T06:32:17+00:00</time>
      </trkpt>
      <trkpt lat="45.7491" lon="3.20809">
        <ele>366.2002</ele>
        <time>2022-07-03T06:32:23+00:00</time>
      </trkpt>
      <trkpt lat="45.74897" lon="3.20802">
        <ele>365.5</ele>
        <time>2022-07-03T06:32:27+00:00</time>
      </trkpt>
      <trkpt lat="45.74883" lon="3.20796">
        <ele>365.5</ele>
        <time>2022-07-03T06:32:31+00:00</time>
      </trkpt>
      <trkpt lat="45.7486" lon="3.20781">
        <ele>365.1006</ele>
        <time>2022-07-03T06:32:37+00:00</time>
      </trkpt>
      <trkpt lat="45.74845" lon="3.2077">
        <ele>363.7998</ele>
        <time>2022-07-03T06:32:41+00:00</time>
      </trkpt>
      <trkpt lat="45.74833" lon="3.20748">
        <ele>364.7002</ele>
        <time>2022-07-03T06:32:45+00:00</time>
      </trkpt>
      <trkpt lat="45.74821" lon="3.2071">
        <ele>364.7998</ele>
        <time>2022-07-03T06:32:51+00:00</time>
      </trkpt>
      <trkpt lat="45.74813" lon="3.20685">
        <ele>365.5</ele>
        <time>2022-07-03T06:32:55+00:00</time>
      </trkpt>
      <trkpt lat="45.74806" lon="3.20659">
        <ele>366.1006</ele>
        <time>2022-07-03T06:32:59+00:00</time>
      </trkpt>
      <trkpt lat="45.74805" lon="3.20627">
        <ele>367.9004</ele>
        <time>2022-07-03T06:33:05+00:00</time>
      </trkpt>
      <trkpt lat="45.74806" lon="3.20608">
        <ele>368.9004</ele>
        <time>2022-07-03T06:33:09+00:00</time>
      </trkpt>
      <trkpt lat="45.74802" lon="3.20612">
        <ele>367.9004</ele>
        <time>2022-07-03T06:33:13+00:00</time>
      </trkpt>
      <trkpt lat="45.74784" lon="3.20628">
        <ele>366</ele>
        <time>2022-07-03T06:33:19+00:00</time>
      </trkpt>
      <trkpt lat="45.74765" lon="3.20597">
        <ele>366.5</ele>
        <time>2022-07-03T06:33:23+00:00</time>
      </trkpt>
      <trkpt lat="45.74742" lon="3.20578">
        <ele>366.7998</ele>
        <time>2022-07-03T06:33:27+00:00</time>
      </trkpt>
      <trkpt lat="45.74711" lon="3.20556">
        <ele>369</ele>
        <time>2022-07-03T06:33:33+00:00</time>
      </trkpt>
      <trkpt lat="45.74693" lon="3.20543">
        <ele>370</ele>
        <time>2022-07-03T06:33:37+00:00</time>
      </trkpt>
      <trkpt lat="45.74676" lon="3.20528">
        <ele>370.1006</ele>
        <time>2022-07-03T06:33:41+00:00</time>
      </trkpt>
      <trkpt lat="45.74652" lon="3.2051">
        <ele>371.7998</ele>
        <time>2022-07-03T06:33:47+00:00</time>
      </trkpt>
      <trkpt lat="45.74637" lon="3.20499">
        <ele>372.9004</ele>
        <time>2022-07-03T06:33:51+00:00</time>
      </trkpt>
      <trkpt lat="45.74622" lon="3.20487">
        <ele>374.6006</ele>
        <time>2022-07-03T06:33:55+00:00</time>
      </trkpt>
      <trkpt lat="45.74602" lon="3.20472">
        <ele>376.6006</ele>
        <time>2022-07-03T06:34:01+00:00</time>
      </trkpt>
      <trkpt lat="45.74593" lon="3.2046">
        <ele>376.7002</ele>
        <time>2022-07-03T06:34:05+00:00</time>
      </trkpt>
      <trkpt lat="45.74585" lon="3.20445">
        <ele>377.9004</ele>
        <time>2022-07-03T06:34:09+00:00</time>
      </trkpt>
      <trkpt lat="45.74577" lon="3.20425">
        <ele>379.2002</ele>
        <time>2022-07-03T06:34:15+00:00</time>
      </trkpt>
      <trkpt lat="45.74572" lon="3.20412">
        <ele>380.7002</ele>
        <time>2022-07-03T06:34:19+00:00</time>
      </trkpt>
      <trkpt lat="45.74566" lon="3.20399">
        <ele>382.1006</ele>
        <time>2022-07-03T06:34:23+00:00</time>
      </trkpt>
      <trkpt lat="45.74558" lon="3.20379">
        <ele>384</ele>
        <time>2022-07-03T06:34:29+00:00</time>
      </trkpt>
      <trkpt lat="45.74554" lon="3.20365">
        <ele>385</ele>
        <time>2022-07-03T06:34:33+00:00</time>
      </trkpt>
      <trkpt lat="45.74549" lon="3.20353">
        <ele>386.1006</ele>
        <time>2022-07-03T06:34:37+00:00</time>
      </trkpt>
      <trkpt lat="45.74544" lon="3.20332">
        <ele>387.9004</ele>
        <time>2022-07-03T06:34:43+00:00</time>
      </trkpt>
      <trkpt lat="45.7454" lon="3.20319">
        <ele>389</ele>
        <time>2022-07-03T06:34:47+00:00</time>
      </trkpt>
      <trkpt lat="45.74533" lon="3.203">
        <ele>390.7002</ele>
        <time>2022-07-03T06:34:53+00:00</time>
      </trkpt>
      <trkpt lat="45.74529" lon="3.20288">
        <ele>390.7002</ele>
        <time>2022-07-03T06:34:57+00:00</time>
      </trkpt>
      <trkpt lat="45.74523" lon="3.20276">
        <ele>392</ele>
        <time>2022-07-03T06:35:01+00:00</time>
      </trkpt>
      <trkpt lat="45.74515" lon="3.20257">
        <ele>392.7998</ele>
        <time>2022-07-03T06:35:07+00:00</time>
      </trkpt>
      <trkpt lat="45.74509" lon="3.20244">
        <ele>393.9004</ele>
        <time>2022-07-03T06:35:11+00:00</time>
      </trkpt>
      <trkpt lat="45.74504" lon="3.20233">
        <ele>394.6006</ele>
        <time>2022-07-03T06:35:15+00:00</time>
      </trkpt>
      <trkpt lat="45.74499" lon="3.20213">
        <ele>395.5</ele>
        <time>2022-07-03T06:35:21+00:00</time>
      </trkpt>
      <trkpt lat="45.74493" lon="3.20201">
        <ele>395.5</ele>
        <time>2022-07-03T06:35:25+00:00</time>
      </trkpt>
      <trkpt lat="45.74483" lon="3.20196">
        <ele>396.5</ele>
        <time>2022-07-03T06:35:29+00:00</time>
      </trkpt>
      <trkpt lat="45.74466" lon="3.20189">
        <ele>396.6006</ele>
        <time>2022-07-03T06:35:35+00:00</time>
      </trkpt>
      <trkpt lat="45.74454" lon="3.20183">
        <ele>396.6006</ele>
        <time>2022-07-03T06:35:39+00:00</time>
      </trkpt>
      <trkpt lat="45.74443" lon="3.20177">
        <ele>397</ele>
        <time>2022-07-03T06:35:43+00:00</time>
      </trkpt>
      <trkpt lat="45.74424" lon="3.20167">
        <ele>396.9004</ele>
        <time>2022-07-03T06:35:49+00:00</time>
      </trkpt>
      <trkpt lat="45.7441" lon="3.2016">
        <ele>397.7998</ele>
        <time>2022-07-03T06:35:53+00:00</time>
      </trkpt>
      <trkpt lat="45.74396" lon="3.20151">
        <ele>397.7002</ele>
        <time>2022-07-03T06:35:57+00:00</time>
      </trkpt>
      <trkpt lat="45.74372" lon="3.20136">
        <ele>398.2998</ele>
        <time>2022-07-03T06:36:03+00:00</time>
      </trkpt>
      <trkpt lat="45.74358" lon="3.20121">
        <ele>399.2998</ele>
        <time>2022-07-03T06:36:07+00:00</time>
      </trkpt>
      <trkpt lat="45.74345" lon="3.2011">
        <ele>400.2998</ele>
        <time>2022-07-03T06:36:11+00:00</time>
      </trkpt>
      <trkpt lat="45.7433" lon="3.20091">
        <ele>400.9004</ele>
        <time>2022-07-03T06:36:17+00:00</time>
      </trkpt>
      <trkpt lat="45.74318" lon="3.20082">
        <ele>400.4004</ele>
        <time>2022-07-03T06:36:21+00:00</time>
      </trkpt>
      <trkpt lat="45.74307" lon="3.20075">
        <ele>400.7998</ele>
        <time>2022-07-03T06:36:25+00:00</time>
      </trkpt>
      <trkpt lat="45.74285" lon="3.20069">
        <ele>399.7998</ele>
        <time>2022-07-03T06:36:31+00:00</time>
      </trkpt>
      <trkpt lat="45.74263" lon="3.20064">
        <ele>399.2002</ele>
        <time>2022-07-03T06:36:35+00:00</time>
      </trkpt>
      <trkpt lat="45.74239" lon="3.20056">
        <ele>398.7002</ele>
        <time>2022-07-03T06:36:39+00:00</time>
      </trkpt>
      <trkpt lat="45.74202" lon="3.20041">
        <ele>397.9004</ele>
        <time>2022-07-03T06:36:45+00:00</time>
      </trkpt>
      <trkpt lat="45.74178" lon="3.20031">
        <ele>396.6006</ele>
        <time>2022-07-03T06:36:49+00:00</time>
      </trkpt>
      <trkpt lat="45.74155" lon="3.20021">
        <ele>397.1006</ele>
        <time>2022-07-03T06:36:53+00:00</time>
      </trkpt>
      <trkpt lat="45.74121" lon="3.20008">
        <ele>397.2002</ele>
        <time>2022-07-03T06:36:59+00:00</time>
      </trkpt>
      <trkpt lat="45.74096" lon="3.20006">
        <ele>395.5</ele>
        <time>2022-07-03T06:37:03+00:00</time>
      </trkpt>
      <trkpt lat="45.74069" lon="3.20003">
        <ele>391.2998</ele>
        <time>2022-07-03T06:37:07+00:00</time>
      </trkpt>
      <trkpt lat="45.74039" lon="3.19965">
        <ele>389.9004</ele>
        <time>2022-07-03T06:37:13+00:00</time>
      </trkpt>
      <trkpt lat="45.74036" lon="3.19924">
        <ele>392.6006</ele>
        <time>2022-07-03T06:37:17+00:00</time>
      </trkpt>
      <trkpt lat="45.74022" lon="3.19917">
        <ele>390.7998</ele>
        <time>2022-07-03T06:37:21+00:00</time>
      </trkpt>
      <trkpt lat="45.74" lon="3.19964">
        <ele>385.1006</ele>
        <time>2022-07-03T06:37:27+00:00</time>
      </trkpt>
      <trkpt lat="45.73981" lon="3.1999">
        <ele>381.9004</ele>
        <time>2022-07-03T06:37:31+00:00</time>
      </trkpt>
      <trkpt lat="45.73942" lon="3.20003">
        <ele>379.7998</ele>
        <time>2022-07-03T06:37:37+00:00</time>
      </trkpt>
      <trkpt lat="45.73918" lon="3.20009">
        <ele>379</ele>
        <time>2022-07-03T06:37:41+00:00</time>
      </trkpt>
      <trkpt lat="45.73896" lon="3.20013">
        <ele>378.2002</ele>
        <time>2022-07-03T06:37:45+00:00</time>
      </trkpt>
      <trkpt lat="45.73878" lon="3.20017">
        <ele>378.2002</ele>
        <time>2022-07-03T06:37:51+00:00</time>
      </trkpt>
      <trkpt lat="45.73865" lon="3.20018">
        <ele>378.2998</ele>
        <time>2022-07-03T06:37:55+00:00</time>
      </trkpt>
      <trkpt lat="45.73845" lon="3.20024">
        <ele>378.4004</ele>
        <time>2022-07-03T06:37:59+00:00</time>
      </trkpt>
      <trkpt lat="45.73813" lon="3.20031">
        <ele>378.4004</ele>
        <time>2022-07-03T06:38:05+00:00</time>
      </trkpt>
      <trkpt lat="45.73793" lon="3.20034">
        <ele>378.9004</ele>
        <time>2022-07-03T06:38:09+00:00</time>
      </trkpt>
      <trkpt lat="45.73771" lon="3.20037">
        <ele>379.1006</ele>
        <time>2022-07-03T06:38:13+00:00</time>
      </trkpt>
      <trkpt lat="45.7374" lon="3.20042">
        <ele>379.7002</ele>
        <time>2022-07-03T06:38:19+00:00</time>
      </trkpt>
      <trkpt lat="45.73719" lon="3.20046">
        <ele>379.4004</ele>
        <time>2022-07-03T06:38:23+00:00</time>
      </trkpt>
      <trkpt lat="45.73699" lon="3.2005">
        <ele>379.6006</ele>
        <time>2022-07-03T06:38:27+00:00</time>
      </trkpt>
      <trkpt lat="45.7367" lon="3.2006">
        <ele>380.2002</ele>
        <time>2022-07-03T06:38:33+00:00</time>
      </trkpt>
      <trkpt lat="45.73651" lon="3.20069">
        <ele>379.7998</ele>
        <time>2022-07-03T06:38:37+00:00</time>
      </trkpt>
      <trkpt lat="45.73634" lon="3.20079">
        <ele>380.2002</ele>
        <time>2022-07-03T06:38:41+00:00</time>
      </trkpt>
      <trkpt lat="45.73604" lon="3.20102">
        <ele>379.1006</ele>
        <time>2022-07-03T06:38:47+00:00</time>
      </trkpt>
      <trkpt lat="45.73579" lon="3.20119">
        <ele>378.1006</ele>
        <time>2022-07-03T06:38:51+00:00</time>
      </trkpt>
      <trkpt lat="45.73547" lon="3.20124">
        <ele>377.5</ele>
        <time>2022-07-03T06:38:55+00:00</time>
      </trkpt>
      <trkpt lat="45.73491" lon="3.20114">
        <ele>376.2002</ele>
        <time>2022-07-03T06:39:01+00:00</time>
      </trkpt>
      <trkpt lat="45.73454" lon="3.2011">
        <ele>375.7002</ele>
        <time>2022-07-03T06:39:05+00:00</time>
      </trkpt>
      <trkpt lat="45.73417" lon="3.20099">
        <ele>372.7002</ele>
        <time>2022-07-03T06:39:09+00:00</time>
      </trkpt>
      <trkpt lat="45.73365" lon="3.2007">
        <ele>369.2998</ele>
        <time>2022-07-03T06:39:15+00:00</time>
      </trkpt>
      <trkpt lat="45.73331" lon="3.2005">
        <ele>366.2998</ele>
        <time>2022-07-03T06:39:19+00:00</time>
      </trkpt>
      <trkpt lat="45.73296" lon="3.2003">
        <ele>363.4004</ele>
        <time>2022-07-03T06:39:23+00:00</time>
      </trkpt>
      <trkpt lat="45.7324" lon="3.20011">
        <ele>359.7998</ele>
        <time>2022-07-03T06:39:29+00:00</time>
      </trkpt>
      <trkpt lat="45.73206" lon="3.20002">
        <ele>358.2998</ele>
        <time>2022-07-03T06:39:33+00:00</time>
      </trkpt>
      <trkpt lat="45.7318" lon="3.19995">
        <ele>357.2998</ele>
        <time>2022-07-03T06:39:37+00:00</time>
      </trkpt>
      <trkpt lat="45.73155" lon="3.19988">
        <ele>356.4004</ele>
        <time>2022-07-03T06:39:43+00:00</time>
      </trkpt>
      <trkpt lat="45.73138" lon="3.19986">
        <ele>356.1006</ele>
        <time>2022-07-03T06:39:47+00:00</time>
      </trkpt>
      <trkpt lat="45.73123" lon="3.19984">
        <ele>355.7998</ele>
        <time>2022-07-03T06:39:51+00:00</time>
      </trkpt>
      <trkpt lat="45.73111" lon="3.19983">
        <ele>355.5</ele>
        <time>2022-07-03T06:39:57+00:00</time>
      </trkpt>
      <trkpt lat="45.73101" lon="3.19983">
        <ele>355.2998</ele>
        <time>2022-07-03T06:40:01+00:00</time>
      </trkpt>
      <trkpt lat="45.73081" lon="3.19984">
        <ele>355</ele>
        <time>2022-07-03T06:40:05+00:00</time>
      </trkpt>
      <trkpt lat="45.73045" lon="3.19988">
        <ele>355.4004</ele>
        <time>2022-07-03T06:40:11+00:00</time>
      </trkpt>
      <trkpt lat="45.7302" lon="3.19991">
        <ele>356</ele>
        <time>2022-07-03T06:40:15+00:00</time>
      </trkpt>
      <trkpt lat="45.72995" lon="3.19995">
        <ele>356.4004</ele>
        <time>2022-07-03T06:40:19+00:00</time>
      </trkpt>
      <trkpt lat="45.72958" lon="3.2">
        <ele>356.6006</ele>
        <time>2022-07-03T06:40:25+00:00</time>
      </trkpt>
      <trkpt lat="45.72933" lon="3.20003">
        <ele>356.6006</ele>
        <time>2022-07-03T06:40:29+00:00</time>
      </trkpt>
      <trkpt lat="45.72897" lon="3.20008">
        <ele>356.6006</ele>
        <time>2022-07-03T06:40:35+00:00</time>
      </trkpt>
      <trkpt lat="45.72874" lon="3.20011">
        <ele>356.4004</ele>
        <time>2022-07-03T06:40:39+00:00</time>
      </trkpt>
      <trkpt lat="45.7285" lon="3.20015">
        <ele>356.6006</ele>
        <time>2022-07-03T06:40:43+00:00</time>
      </trkpt>
      <trkpt lat="45.7282" lon="3.20018">
        <ele>357</ele>
        <time>2022-07-03T06:40:49+00:00</time>
      </trkpt>
      <trkpt lat="45.72818" lon="3.19995">
        <ele>357.5</ele>
        <time>2022-07-03T06:40:53+00:00</time>
      </trkpt>
      <trkpt lat="45.72823" lon="3.19973">
        <ele>358.6006</ele>
        <time>2022-07-03T06:40:57+00:00</time>
      </trkpt>
      <trkpt lat="45.72816" lon="3.19998">
        <ele>357.5</ele>
        <time>2022-07-03T06:41:03+00:00</time>
      </trkpt>
      <trkpt lat="45.72813" lon="3.20022">
        <ele>357</ele>
        <time>2022-07-03T06:41:07+00:00</time>
      </trkpt>
      <trkpt lat="45.72794" lon="3.20022">
        <ele>357.2002</ele>
        <time>2022-07-03T06:41:11+00:00</time>
      </trkpt>
      <trkpt lat="45.72788" lon="3.19981">
        <ele>358.2002</ele>
        <time>2022-07-03T06:41:17+00:00</time>
      </trkpt>
      <trkpt lat="45.72789" lon="3.19952">
        <ele>359.2002</ele>
        <time>2022-07-03T06:41:21+00:00</time>
      </trkpt>
      <trkpt lat="45.72789" lon="3.19924">
        <ele>360.2002</ele>
        <time>2022-07-03T06:41:25+00:00</time>
      </trkpt>
      <trkpt lat="45.72788" lon="3.19884">
        <ele>361.1006</ele>
        <time>2022-07-03T06:41:31+00:00</time>
      </trkpt>
      <trkpt lat="45.72788" lon="3.19856">
        <ele>361.7002</ele>
        <time>2022-07-03T06:41:35+00:00</time>
      </trkpt>
      <trkpt lat="45.72789" lon="3.1983">
        <ele>362</ele>
        <time>2022-07-03T06:41:39+00:00</time>
      </trkpt>
      <trkpt lat="45.72791" lon="3.19789">
        <ele>362.2002</ele>
        <time>2022-07-03T06:41:45+00:00</time>
      </trkpt>
      <trkpt lat="45.72791" lon="3.19763">
        <ele>362.1006</ele>
        <time>2022-07-03T06:41:49+00:00</time>
      </trkpt>
      <trkpt lat="45.72792" lon="3.19734">
        <ele>361.9004</ele>
        <time>2022-07-03T06:41:53+00:00</time>
      </trkpt>
      <trkpt lat="45.72793" lon="3.19688">
        <ele>361.7002</ele>
        <time>2022-07-03T06:41:59+00:00</time>
      </trkpt>
      <trkpt lat="45.72792" lon="3.19668">
        <ele>361.5</ele>
        <time>2022-07-03T06:42:03+00:00</time>
      </trkpt>
      <trkpt lat="45.72775" lon="3.19659">
        <ele>362.7002</ele>
        <time>2022-07-03T06:42:07+00:00</time>
      </trkpt>
      <trkpt lat="45.72749" lon="3.19651">
        <ele>364.2998</ele>
        <time>2022-07-03T06:42:13+00:00</time>
      </trkpt>
      <trkpt lat="45.72732" lon="3.19645">
        <ele>364.7002</ele>
        <time>2022-07-03T06:42:17+00:00</time>
      </trkpt>
      <trkpt lat="45.72714" lon="3.1964">
        <ele>365.7998</ele>
        <time>2022-07-03T06:42:21+00:00</time>
      </trkpt>
      <trkpt lat="45.72686" lon="3.19636">
        <ele>366.1006</ele>
        <time>2022-07-03T06:42:27+00:00</time>
      </trkpt>
      <trkpt lat="45.72669" lon="3.19638">
        <ele>365.7998</ele>
        <time>2022-07-03T06:42:31+00:00</time>
      </trkpt>
      <trkpt lat="45.72649" lon="3.1964">
        <ele>364.6006</ele>
        <time>2022-07-03T06:42:35+00:00</time>
      </trkpt>
      <trkpt lat="45.72607" lon="3.19642">
        <ele>362.2998</ele>
        <time>2022-07-03T06:42:41+00:00</time>
      </trkpt>
      <trkpt lat="45.72571" lon="3.19645">
        <ele>358.5</ele>
        <time>2022-07-03T06:42:45+00:00</time>
      </trkpt>
      <trkpt lat="45.72546" lon="3.19647">
        <ele>355.9004</ele>
        <time>2022-07-03T06:42:49+00:00</time>
      </trkpt>
      <trkpt lat="45.72521" lon="3.19653">
        <ele>353.1006</ele>
        <time>2022-07-03T06:42:55+00:00</time>
      </trkpt>
      <trkpt lat="45.72502" lon="3.1968">
        <ele>351.5</ele>
        <time>2022-07-03T06:42:59+00:00</time>
      </trkpt>
      <trkpt lat="45.72486" lon="3.19724">
        <ele>348.5</ele>
        <time>2022-07-03T06:43:03+00:00</time>
      </trkpt>
      <trkpt lat="45.72456" lon="3.19784">
        <ele>345.9004</ele>
        <time>2022-07-03T06:43:09+00:00</time>
      </trkpt>
      <trkpt lat="45.72428" lon="3.19761">
        <ele>342.2002</ele>
        <time>2022-07-03T06:43:13+00:00</time>
      </trkpt>
      <trkpt lat="45.72386" lon="3.19755">
        <ele>341.7998</ele>
        <time>2022-07-03T06:43:19+00:00</time>
      </trkpt>
      <trkpt lat="45.7237" lon="3.19769">
        <ele>341.7998</ele>
        <time>2022-07-03T06:43:23+00:00</time>
      </trkpt>
      <trkpt lat="45.72379" lon="3.19762">
        <ele>341.7998</ele>
        <time>2022-07-03T06:43:27+00:00</time>
      </trkpt>
      <trkpt lat="45.72409" lon="3.19752">
        <ele>342.1006</ele>
        <time>2022-07-03T06:43:33+00:00</time>
      </trkpt>
      <trkpt lat="45.72428" lon="3.19761">
        <ele>342.2002</ele>
        <time>2022-07-03T06:43:37+00:00</time>
      </trkpt>
      <trkpt lat="45.72433" lon="3.19744">
        <ele>342</ele>
        <time>2022-07-03T06:43:41+00:00</time>
      </trkpt>
      <trkpt lat="45.72428" lon="3.19716">
        <ele>342.2002</ele>
        <time>2022-07-03T06:43:47+00:00</time>
      </trkpt>
      <trkpt lat="45.72428" lon="3.19714">
        <ele>342.2002</ele>
        <time>2022-07-03T06:44:15+00:00</time>
      </trkpt>
      <trkpt lat="45.7243" lon="3.19702">
        <ele>342.7002</ele>
        <time>2022-07-03T06:44:19+00:00</time>
      </trkpt>
      <trkpt lat="45.72431" lon="3.1968">
        <ele>343.1006</ele>
        <time>2022-07-03T06:44:23+00:00</time>
      </trkpt>
      <trkpt lat="45.72439" lon="3.19649">
        <ele>342.9004</ele>
        <time>2022-07-03T06:44:29+00:00</time>
      </trkpt>
      <trkpt lat="45.72445" lon="3.19634">
        <ele>342.7998</ele>
        <time>2022-07-03T06:44:33+00:00</time>
      </trkpt>
      <trkpt lat="45.72452" lon="3.19609">
        <ele>342.2998</ele>
        <time>2022-07-03T06:44:37+00:00</time>
      </trkpt>
      <trkpt lat="45.72444" lon="3.19566">
        <ele>342.7998</ele>
        <time>2022-07-03T06:44:43+00:00</time>
      </trkpt>
      <trkpt lat="45.72436" lon="3.19542">
        <ele>343.1006</ele>
        <time>2022-07-03T06:44:47+00:00</time>
      </trkpt>
      <trkpt lat="45.72425" lon="3.19521">
        <ele>343.1006</ele>
        <time>2022-07-03T06:44:51+00:00</time>
      </trkpt>
      <trkpt lat="45.72397" lon="3.19508">
        <ele>342.9004</ele>
        <time>2022-07-03T06:44:57+00:00</time>
      </trkpt>
      <trkpt lat="45.72381" lon="3.19497">
        <ele>343.1006</ele>
        <time>2022-07-03T06:45:01+00:00</time>
      </trkpt>
      <trkpt lat="45.72364" lon="3.19487">
        <ele>343.5</ele>
        <time>2022-07-03T06:45:05+00:00</time>
      </trkpt>
      <trkpt lat="45.72353" lon="3.19465">
        <ele>343.4004</ele>
        <time>2022-07-03T06:45:11+00:00</time>
      </trkpt>
      <trkpt lat="45.7235" lon="3.19437">
        <ele>342.7002</ele>
        <time>2022-07-03T06:45:15+00:00</time>
      </trkpt>
      <trkpt lat="45.72333" lon="3.19429">
        <ele>342.7998</ele>
        <time>2022-07-03T06:45:19+00:00</time>
      </trkpt>
      <trkpt lat="45.72307" lon="3.19416">
        <ele>342.7998</ele>
        <time>2022-07-03T06:45:25+00:00</time>
      </trkpt>
      <trkpt lat="45.72289" lon="3.19406">
        <ele>342.7998</ele>
        <time>2022-07-03T06:45:29+00:00</time>
      </trkpt>
      <trkpt lat="45.72276" lon="3.19399">
        <ele>343.1006</ele>
        <time>2022-07-03T06:45:33+00:00</time>
      </trkpt>
      <trkpt lat="45.72273" lon="3.19398">
        <ele>343.1006</ele>
        <time>2022-07-03T06:45:39+00:00</time>
      </trkpt>
      <trkpt lat="45.72271" lon="3.19395">
        <ele>343.2998</ele>
        <time>2022-07-03T06:45:53+00:00</time>
      </trkpt>
      <trkpt lat="45.72263" lon="3.19383">
        <ele>343.2002</ele>
        <time>2022-07-03T06:45:57+00:00</time>
      </trkpt>
      <trkpt lat="45.72257" lon="3.19366">
        <ele>343.5</ele>
        <time>2022-07-03T06:46:01+00:00</time>
      </trkpt>
      <trkpt lat="45.72233" lon="3.19349">
        <ele>344.1006</ele>
        <time>2022-07-03T06:46:07+00:00</time>
      </trkpt>
      <trkpt lat="45.72217" lon="3.19339">
        <ele>344.5</ele>
        <time>2022-07-03T06:46:11+00:00</time>
      </trkpt>
      <trkpt lat="45.72195" lon="3.19332">
        <ele>345.1006</ele>
        <time>2022-07-03T06:46:17+00:00</time>
      </trkpt>
      <trkpt lat="45.72179" lon="3.19329">
        <ele>345.5</ele>
        <time>2022-07-03T06:46:21+00:00</time>
      </trkpt>
      <trkpt lat="45.72163" lon="3.19329">
        <ele>346.5</ele>
        <time>2022-07-03T06:46:25+00:00</time>
      </trkpt>
      <trkpt lat="45.72139" lon="3.19329">
        <ele>347.9004</ele>
        <time>2022-07-03T06:46:31+00:00</time>
      </trkpt>
      <trkpt lat="45.72122" lon="3.19326">
        <ele>348.5</ele>
        <time>2022-07-03T06:46:35+00:00</time>
      </trkpt>
      <trkpt lat="45.72108" lon="3.19318">
        <ele>349.1006</ele>
        <time>2022-07-03T06:46:39+00:00</time>
      </trkpt>
      <trkpt lat="45.72097" lon="3.19286">
        <ele>349.1006</ele>
        <time>2022-07-03T06:46:45+00:00</time>
      </trkpt>
      <trkpt lat="45.72086" lon="3.19266">
        <ele>349</ele>
        <time>2022-07-03T06:46:49+00:00</time>
      </trkpt>
      <trkpt lat="45.72068" lon="3.19258">
        <ele>349.4004</ele>
        <time>2022-07-03T06:46:53+00:00</time>
      </trkpt>
      <trkpt lat="45.72041" lon="3.19244">
        <ele>349.6006</ele>
        <time>2022-07-03T06:46:59+00:00</time>
      </trkpt>
      <trkpt lat="45.72026" lon="3.19226">
        <ele>349.6006</ele>
        <time>2022-07-03T06:47:03+00:00</time>
      </trkpt>
      <trkpt lat="45.72016" lon="3.19199">
        <ele>349.4004</ele>
        <time>2022-07-03T06:47:07+00:00</time>
      </trkpt>
      <trkpt lat="45.72009" lon="3.19149">
        <ele>349.2002</ele>
        <time>2022-07-03T06:47:13+00:00</time>
      </trkpt>
      <trkpt lat="45.72004" lon="3.19114">
        <ele>349.7998</ele>
        <time>2022-07-03T06:47:17+00:00</time>
      </trkpt>
      <trkpt lat="45.72002" lon="3.19081">
        <ele>349.6006</ele>
        <time>2022-07-03T06:47:21+00:00</time>
      </trkpt>
      <trkpt lat="45.71998" lon="3.19028">
        <ele>348.2998</ele>
        <time>2022-07-03T06:47:27+00:00</time>
      </trkpt>
      <trkpt lat="45.7198" lon="3.19004">
        <ele>349.5</ele>
        <time>2022-07-03T06:47:31+00:00</time>
      </trkpt>
      <trkpt lat="45.71958" lon="3.19001">
        <ele>351</ele>
        <time>2022-07-03T06:47:35+00:00</time>
      </trkpt>
      <trkpt lat="45.7193" lon="3.19001">
        <ele>352.2998</ele>
        <time>2022-07-03T06:47:41+00:00</time>
      </trkpt>
      <trkpt lat="45.7192" lon="3.18979">
        <ele>352.6006</ele>
        <time>2022-07-03T06:47:45+00:00</time>
      </trkpt>
      <trkpt lat="45.7192" lon="3.18953">
        <ele>352.5</ele>
        <time>2022-07-03T06:47:49+00:00</time>
      </trkpt>
      <trkpt lat="45.71922" lon="3.18916">
        <ele>352.2998</ele>
        <time>2022-07-03T06:47:55+00:00</time>
      </trkpt>
      <trkpt lat="45.7192" lon="3.18901">
        <ele>351.9004</ele>
        <time>2022-07-03T06:47:59+00:00</time>
      </trkpt>
      <trkpt lat="45.71921" lon="3.18898">
        <ele>351.9004</ele>
        <time>2022-07-03T06:48:03+00:00</time>
      </trkpt>
      <trkpt lat="45.7192" lon="3.18881">
        <ele>351.4004</ele>
        <time>2022-07-03T06:48:09+00:00</time>
      </trkpt>
      <trkpt lat="45.71907" lon="3.18866">
        <ele>351.4004</ele>
        <time>2022-07-03T06:48:13+00:00</time>
      </trkpt>
      <trkpt lat="45.71888" lon="3.18861">
        <ele>351.6006</ele>
        <time>2022-07-03T06:48:17+00:00</time>
      </trkpt>
      <trkpt lat="45.71861" lon="3.18852">
        <ele>352.1006</ele>
        <time>2022-07-03T06:48:23+00:00</time>
      </trkpt>
      <trkpt lat="45.71844" lon="3.18846">
        <ele>352.2998</ele>
        <time>2022-07-03T06:48:27+00:00</time>
      </trkpt>
      <trkpt lat="45.71826" lon="3.18839">
        <ele>352.1006</ele>
        <time>2022-07-03T06:48:31+00:00</time>
      </trkpt>
      <trkpt lat="45.7181" lon="3.18806">
        <ele>351.1006</ele>
        <time>2022-07-03T06:48:37+00:00</time>
      </trkpt>
      <trkpt lat="45.718" lon="3.18778">
        <ele>351</ele>
        <time>2022-07-03T06:48:41+00:00</time>
      </trkpt>
      <trkpt lat="45.71781" lon="3.18764">
        <ele>351.2002</ele>
        <time>2022-07-03T06:48:45+00:00</time>
      </trkpt>
      <trkpt lat="45.71751" lon="3.18755">
        <ele>351.7002</ele>
        <time>2022-07-03T06:48:51+00:00</time>
      </trkpt>
      <trkpt lat="45.71731" lon="3.18749">
        <ele>352.7002</ele>
        <time>2022-07-03T06:48:55+00:00</time>
      </trkpt>
      <trkpt lat="45.71698" lon="3.18739">
        <ele>353</ele>
        <time>2022-07-03T06:49:01+00:00</time>
      </trkpt>
      <trkpt lat="45.71676" lon="3.18732">
        <ele>353.7002</ele>
        <time>2022-07-03T06:49:05+00:00</time>
      </trkpt>
      <trkpt lat="45.71653" lon="3.18725">
        <ele>354.2998</ele>
        <time>2022-07-03T06:49:09+00:00</time>
      </trkpt>
      <trkpt lat="45.7162" lon="3.18718">
        <ele>353.5</ele>
        <time>2022-07-03T06:49:15+00:00</time>
      </trkpt>
      <trkpt lat="45.71598" lon="3.18714">
        <ele>353.6006</ele>
        <time>2022-07-03T06:49:19+00:00</time>
      </trkpt>
      <trkpt lat="45.71576" lon="3.18706">
        <ele>352.7998</ele>
        <time>2022-07-03T06:49:23+00:00</time>
      </trkpt>
      <trkpt lat="45.71544" lon="3.18696">
        <ele>353.7002</ele>
        <time>2022-07-03T06:49:29+00:00</time>
      </trkpt>
      <trkpt lat="45.71521" lon="3.18692">
        <ele>355.2998</ele>
        <time>2022-07-03T06:49:33+00:00</time>
      </trkpt>
      <trkpt lat="45.71499" lon="3.18684">
        <ele>355.9004</ele>
        <time>2022-07-03T06:49:37+00:00</time>
      </trkpt>
      <trkpt lat="45.71467" lon="3.18665">
        <ele>355.1006</ele>
        <time>2022-07-03T06:49:43+00:00</time>
      </trkpt>
      <trkpt lat="45.71446" lon="3.18653">
        <ele>353.9004</ele>
        <time>2022-07-03T06:49:47+00:00</time>
      </trkpt>
      <trkpt lat="45.71424" lon="3.1864">
        <ele>353.9004</ele>
        <time>2022-07-03T06:49:51+00:00</time>
      </trkpt>
      <trkpt lat="45.71393" lon="3.18617">
        <ele>352.2002</ele>
        <time>2022-07-03T06:49:57+00:00</time>
      </trkpt>
      <trkpt lat="45.71372" lon="3.18603">
        <ele>352.1006</ele>
        <time>2022-07-03T06:50:01+00:00</time>
      </trkpt>
      <trkpt lat="45.71352" lon="3.18587">
        <ele>352.6006</ele>
        <time>2022-07-03T06:50:05+00:00</time>
      </trkpt>
      <trkpt lat="45.71326" lon="3.18552">
        <ele>352.5</ele>
        <time>2022-07-03T06:50:11+00:00</time>
      </trkpt>
      <trkpt lat="45.71309" lon="3.18526">
        <ele>352.9004</ele>
        <time>2022-07-03T06:50:15+00:00</time>
      </trkpt>
      <trkpt lat="45.71275" lon="3.18492">
        <ele>353.4004</ele>
        <time>2022-07-03T06:50:19+00:00</time>
      </trkpt>
      <trkpt lat="45.7124" lon="3.18474">
        <ele>354</ele>
        <time>2022-07-03T06:50:25+00:00</time>
      </trkpt>
      <trkpt lat="45.71217" lon="3.18466">
        <ele>354.2002</ele>
        <time>2022-07-03T06:50:29+00:00</time>
      </trkpt>
      <trkpt lat="45.71194" lon="3.18456">
        <ele>354.1006</ele>
        <time>2022-07-03T06:50:33+00:00</time>
      </trkpt>
      <trkpt lat="45.71174" lon="3.18417">
        <ele>354.1006</ele>
        <time>2022-07-03T06:50:39+00:00</time>
      </trkpt>
      <trkpt lat="45.7116" lon="3.18389">
        <ele>354.2998</ele>
        <time>2022-07-03T06:50:43+00:00</time>
      </trkpt>
      <trkpt lat="45.71145" lon="3.18365">
        <ele>354.7998</ele>
        <time>2022-07-03T06:50:47+00:00</time>
      </trkpt>
      <trkpt lat="45.71125" lon="3.1833">
        <ele>355.1006</ele>
        <time>2022-07-03T06:50:53+00:00</time>
      </trkpt>
      <trkpt lat="45.71129" lon="3.18299">
        <ele>354.9004</ele>
        <time>2022-07-03T06:50:57+00:00</time>
      </trkpt>
      <trkpt lat="45.71095" lon="3.1826">
        <ele>355.1006</ele>
        <time>2022-07-03T06:51:07+00:00</time>
      </trkpt>
      <trkpt lat="45.7108" lon="3.18306">
        <ele>355.7998</ele>
        <time>2022-07-03T06:52:35+00:00</time>
      </trkpt>
      <trkpt lat="45.71056" lon="3.18289">
        <ele>356.2002</ele>
        <time>2022-07-03T06:52:41+00:00</time>
      </trkpt>
      <trkpt lat="45.71038" lon="3.18282">
        <ele>356.2998</ele>
        <time>2022-07-03T06:52:45+00:00</time>
      </trkpt>
      <trkpt lat="45.7102" lon="3.18277">
        <ele>356.6006</ele>
        <time>2022-07-03T06:52:49+00:00</time>
      </trkpt>
      <trkpt lat="45.70992" lon="3.18262">
        <ele>357</ele>
        <time>2022-07-03T06:52:55+00:00</time>
      </trkpt>
      <trkpt lat="45.70974" lon="3.18249">
        <ele>357</ele>
        <time>2022-07-03T06:52:59+00:00</time>
      </trkpt>
      <trkpt lat="45.70953" lon="3.1824">
        <ele>356.7998</ele>
        <time>2022-07-03T06:53:03+00:00</time>
      </trkpt>
      <trkpt lat="45.70925" lon="3.18231">
        <ele>356.4004</ele>
        <time>2022-07-03T06:53:09+00:00</time>
      </trkpt>
      <trkpt lat="45.70906" lon="3.18225">
        <ele>356.6006</ele>
        <time>2022-07-03T06:53:13+00:00</time>
      </trkpt>
      <trkpt lat="45.70886" lon="3.18219">
        <ele>356.5</ele>
        <time>2022-07-03T06:53:17+00:00</time>
      </trkpt>
      <trkpt lat="45.70855" lon="3.18212">
        <ele>356.2998</ele>
        <time>2022-07-03T06:53:23+00:00</time>
      </trkpt>
      <trkpt lat="45.70835" lon="3.1821">
        <ele>356.2998</ele>
        <time>2022-07-03T06:53:27+00:00</time>
      </trkpt>
      <trkpt lat="45.70813" lon="3.18216">
        <ele>356.7002</ele>
        <time>2022-07-03T06:53:31+00:00</time>
      </trkpt>
      <trkpt lat="45.70782" lon="3.18227">
        <ele>357.4004</ele>
        <time>2022-07-03T06:53:37+00:00</time>
      </trkpt>
      <trkpt lat="45.70762" lon="3.18233">
        <ele>357.7002</ele>
        <time>2022-07-03T06:53:41+00:00</time>
      </trkpt>
      <trkpt lat="45.70744" lon="3.18238">
        <ele>358.2998</ele>
        <time>2022-07-03T06:53:45+00:00</time>
      </trkpt>
      <trkpt lat="45.70721" lon="3.1821">
        <ele>359</ele>
        <time>2022-07-03T06:53:51+00:00</time>
      </trkpt>
      <trkpt lat="45.7071" lon="3.18184">
        <ele>359.2998</ele>
        <time>2022-07-03T06:53:55+00:00</time>
      </trkpt>
      <trkpt lat="45.70701" lon="3.18155">
        <ele>359</ele>
        <time>2022-07-03T06:53:59+00:00</time>
      </trkpt>
      <trkpt lat="45.70689" lon="3.1811">
        <ele>358.5</ele>
        <time>2022-07-03T06:54:05+00:00</time>
      </trkpt>
      <trkpt lat="45.70682" lon="3.18081">
        <ele>357.9004</ele>
        <time>2022-07-03T06:54:09+00:00</time>
      </trkpt>
      <trkpt lat="45.70691" lon="3.18052">
        <ele>357.7002</ele>
        <time>2022-07-03T06:54:13+00:00</time>
      </trkpt>
      <trkpt lat="45.70716" lon="3.18021">
        <ele>357.2998</ele>
        <time>2022-07-03T06:54:19+00:00</time>
      </trkpt>
      <trkpt lat="45.70734" lon="3.18001">
        <ele>357.2002</ele>
        <time>2022-07-03T06:54:23+00:00</time>
      </trkpt>
      <trkpt lat="45.70753" lon="3.17979">
        <ele>356.9004</ele>
        <time>2022-07-03T06:54:27+00:00</time>
      </trkpt>
      <trkpt lat="45.7078" lon="3.17945">
        <ele>356.7998</ele>
        <time>2022-07-03T06:54:33+00:00</time>
      </trkpt>
      <trkpt lat="45.70798" lon="3.17924">
        <ele>356.7998</ele>
        <time>2022-07-03T06:54:37+00:00</time>
      </trkpt>
      <trkpt lat="45.70825" lon="3.1789">
        <ele>356.7998</ele>
        <time>2022-07-03T06:54:43+00:00</time>
      </trkpt>
      <trkpt lat="45.70843" lon="3.17868">
        <ele>356.7998</ele>
        <time>2022-07-03T06:54:47+00:00</time>
      </trkpt>
      <trkpt lat="45.70861" lon="3.17847">
        <ele>356.7998</ele>
        <time>2022-07-03T06:54:51+00:00</time>
      </trkpt>
      <trkpt lat="45.70882" lon="3.17815">
        <ele>357.1006</ele>
        <time>2022-07-03T06:54:57+00:00</time>
      </trkpt>
      <trkpt lat="45.70889" lon="3.17796">
        <ele>357.5</ele>
        <time>2022-07-03T06:55:01+00:00</time>
      </trkpt>
      <trkpt lat="45.70877" lon="3.17772">
        <ele>357.5</ele>
        <time>2022-07-03T06:55:05+00:00</time>
      </trkpt>
      <trkpt lat="45.70857" lon="3.17737">
        <ele>357.4004</ele>
        <time>2022-07-03T06:55:11+00:00</time>
      </trkpt>
      <trkpt lat="45.70844" lon="3.17715">
        <ele>357.2002</ele>
        <time>2022-07-03T06:55:15+00:00</time>
      </trkpt>
      <trkpt lat="45.70831" lon="3.17692">
        <ele>357.1006</ele>
        <time>2022-07-03T06:55:19+00:00</time>
      </trkpt>
      <trkpt lat="45.70809" lon="3.17657">
        <ele>357.2998</ele>
        <time>2022-07-03T06:55:25+00:00</time>
      </trkpt>
      <trkpt lat="45.70794" lon="3.17632">
        <ele>357.6006</ele>
        <time>2022-07-03T06:55:29+00:00</time>
      </trkpt>
      <trkpt lat="45.70778" lon="3.17607">
        <ele>358.2002</ele>
        <time>2022-07-03T06:55:33+00:00</time>
      </trkpt>
      <trkpt lat="45.70756" lon="3.17565">
        <ele>359.2002</ele>
        <time>2022-07-03T06:55:39+00:00</time>
      </trkpt>
      <trkpt lat="45.70745" lon="3.17533">
        <ele>360</ele>
        <time>2022-07-03T06:55:43+00:00</time>
      </trkpt>
      <trkpt lat="45.70738" lon="3.17501">
        <ele>360.6006</ele>
        <time>2022-07-03T06:55:47+00:00</time>
      </trkpt>
      <trkpt lat="45.70726" lon="3.17454">
        <ele>361</ele>
        <time>2022-07-03T06:55:53+00:00</time>
      </trkpt>
      <trkpt lat="45.70717" lon="3.17423">
        <ele>361.1006</ele>
        <time>2022-07-03T06:55:57+00:00</time>
      </trkpt>
      <trkpt lat="45.70704" lon="3.17396">
        <ele>360.5</ele>
        <time>2022-07-03T06:56:01+00:00</time>
      </trkpt>
      <trkpt lat="45.70678" lon="3.17359">
        <ele>359.5</ele>
        <time>2022-07-03T06:56:07+00:00</time>
      </trkpt>
      <trkpt lat="45.7066" lon="3.17336">
        <ele>359.5</ele>
        <time>2022-07-03T06:56:11+00:00</time>
      </trkpt>
      <trkpt lat="45.70643" lon="3.17315">
        <ele>359.7998</ele>
        <time>2022-07-03T06:56:15+00:00</time>
      </trkpt>
      <trkpt lat="45.70607" lon="3.17304">
        <ele>360.7002</ele>
        <time>2022-07-03T06:56:21+00:00</time>
      </trkpt>
      <trkpt lat="45.70584" lon="3.17301">
        <ele>361.4004</ele>
        <time>2022-07-03T06:56:25+00:00</time>
      </trkpt>
      <trkpt lat="45.70561" lon="3.17293">
        <ele>362.1006</ele>
        <time>2022-07-03T06:56:29+00:00</time>
      </trkpt>
      <trkpt lat="45.70526" lon="3.1728">
        <ele>363</ele>
        <time>2022-07-03T06:56:35+00:00</time>
      </trkpt>
      <trkpt lat="45.70503" lon="3.17271">
        <ele>363.6006</ele>
        <time>2022-07-03T06:56:39+00:00</time>
      </trkpt>
      <trkpt lat="45.70481" lon="3.17262">
        <ele>364.2002</ele>
        <time>2022-07-03T06:56:43+00:00</time>
      </trkpt>
      <trkpt lat="45.70449" lon="3.17261">
        <ele>365.1006</ele>
        <time>2022-07-03T06:56:49+00:00</time>
      </trkpt>
      <trkpt lat="45.70435" lon="3.17248">
        <ele>365.5</ele>
        <time>2022-07-03T06:56:53+00:00</time>
      </trkpt>
      <trkpt lat="45.70427" lon="3.17229">
        <ele>367.9004</ele>
        <time>2022-07-03T06:56:57+00:00</time>
      </trkpt>
      <trkpt lat="45.7044" lon="3.17204">
        <ele>368.4004</ele>
        <time>2022-07-03T06:57:03+00:00</time>
      </trkpt>
      <trkpt lat="45.70448" lon="3.17187">
        <ele>369.5</ele>
        <time>2022-07-03T06:57:07+00:00</time>
      </trkpt>
      <trkpt lat="45.70456" lon="3.17171">
        <ele>369.7998</ele>
        <time>2022-07-03T06:57:11+00:00</time>
      </trkpt>
      <trkpt lat="45.70462" lon="3.17142">
        <ele>371.6006</ele>
        <time>2022-07-03T06:57:17+00:00</time>
      </trkpt>
      <trkpt lat="45.70464" lon="3.17125">
        <ele>371.2002</ele>
        <time>2022-07-03T06:57:21+00:00</time>
      </trkpt>
      <trkpt lat="45.7047" lon="3.17109">
        <ele>371.7998</ele>
        <time>2022-07-03T06:57:25+00:00</time>
      </trkpt>
      <trkpt lat="45.70476" lon="3.17082">
        <ele>371.4004</ele>
        <time>2022-07-03T06:57:31+00:00</time>
      </trkpt>
      <trkpt lat="45.7048" lon="3.17064">
        <ele>372.5</ele>
        <time>2022-07-03T06:57:35+00:00</time>
      </trkpt>
      <trkpt lat="45.70483" lon="3.17035">
        <ele>374.7002</ele>
        <time>2022-07-03T06:57:41+00:00</time>
      </trkpt>
      <trkpt lat="45.70486" lon="3.17016">
        <ele>375.7998</ele>
        <time>2022-07-03T06:57:45+00:00</time>
      </trkpt>
      <trkpt lat="45.70487" lon="3.16996">
        <ele>375</ele>
        <time>2022-07-03T06:57:49+00:00</time>
      </trkpt>
      <trkpt lat="45.70488" lon="3.16966">
        <ele>376.2998</ele>
        <time>2022-07-03T06:57:55+00:00</time>
      </trkpt>
      <trkpt lat="45.70487" lon="3.16946">
        <ele>377</ele>
        <time>2022-07-03T06:57:59+00:00</time>
      </trkpt>
      <trkpt lat="45.70481" lon="3.16929">
        <ele>379.2998</ele>
        <time>2022-07-03T06:58:03+00:00</time>
      </trkpt>
      <trkpt lat="45.7047" lon="3.16905">
        <ele>381.4004</ele>
        <time>2022-07-03T06:58:09+00:00</time>
      </trkpt>
      <trkpt lat="45.70468" lon="3.16888">
        <ele>381.5</ele>
        <time>2022-07-03T06:58:13+00:00</time>
      </trkpt>
      <trkpt lat="45.70463" lon="3.16869">
        <ele>381.2002</ele>
        <time>2022-07-03T06:58:17+00:00</time>
      </trkpt>
      <trkpt lat="45.70454" lon="3.16845">
        <ele>382.4004</ele>
        <time>2022-07-03T06:58:23+00:00</time>
      </trkpt>
      <trkpt lat="45.70451" lon="3.16828">
        <ele>381.6006</ele>
        <time>2022-07-03T06:58:27+00:00</time>
      </trkpt>
      <trkpt lat="45.70445" lon="3.168">
        <ele>381.4004</ele>
        <time>2022-07-03T06:58:31+00:00</time>
      </trkpt>
      <trkpt lat="45.70433" lon="3.16763">
        <ele>381.2002</ele>
        <time>2022-07-03T06:58:37+00:00</time>
      </trkpt>
      <trkpt lat="45.7043" lon="3.16732">
        <ele>379.9004</ele>
        <time>2022-07-03T06:58:41+00:00</time>
      </trkpt>
      <trkpt lat="45.70439" lon="3.16693">
        <ele>377</ele>
        <time>2022-07-03T06:58:45+00:00</time>
      </trkpt>
      <trkpt lat="45.70449" lon="3.16625">
        <ele>375.6006</ele>
        <time>2022-07-03T06:58:51+00:00</time>
      </trkpt>
      <trkpt lat="45.70451" lon="3.16573">
        <ele>372.4004</ele>
        <time>2022-07-03T06:58:55+00:00</time>
      </trkpt>
      <trkpt lat="45.7045" lon="3.1653">
        <ele>371.7998</ele>
        <time>2022-07-03T06:58:59+00:00</time>
      </trkpt>
      <trkpt lat="45.70434" lon="3.16492">
        <ele>370.2998</ele>
        <time>2022-07-03T06:59:05+00:00</time>
      </trkpt>
      <trkpt lat="45.70423" lon="3.16466">
        <ele>370</ele>
        <time>2022-07-03T06:59:09+00:00</time>
      </trkpt>
      <trkpt lat="45.70407" lon="3.16436">
        <ele>369.4004</ele>
        <time>2022-07-03T06:59:13+00:00</time>
      </trkpt>
      <trkpt lat="45.7038" lon="3.16394">
        <ele>371.8</ele>
        <time>2022-07-03T06:59:19+00:00</time>
      </trkpt>
      <trkpt lat="45.70362" lon="3.16369">
        <ele>370.9</ele>
        <time>2022-07-03T06:59:23+00:00</time>
      </trkpt>
      <trkpt lat="45.70349" lon="3.16339">
        <ele>370.9</ele>
        <time>2022-07-03T06:59:27+00:00</time>
      </trkpt>
      <trkpt lat="45.70338" lon="3.16289">
        <ele>371.5</ele>
        <time>2022-07-03T06:59:33+00:00</time>
      </trkpt>
      <trkpt lat="45.7033" lon="3.16259">
        <ele>371.6</ele>
        <time>2022-07-03T06:59:37+00:00</time>
      </trkpt>
      <trkpt lat="45.70323" lon="3.16229">
        <ele>371.9</ele>
        <time>2022-07-03T06:59:41+00:00</time>
      </trkpt>
      <trkpt lat="45.70312" lon="3.16186">
        <ele>373.4</ele>
        <time>2022-07-03T06:59:47+00:00</time>
      </trkpt>
      <trkpt lat="45.70306" lon="3.16159">
        <ele>372.7</ele>
        <time>2022-07-03T06:59:51+00:00</time>
      </trkpt>
      <trkpt lat="45.703" lon="3.16132">
        <ele>373.5</ele>
        <time>2022-07-03T06:59:55+00:00</time>
      </trkpt>
      <trkpt lat="45.7029" lon="3.16095">
        <ele>375.7</ele>
        <time>2022-07-03T07:00:01+00:00</time>
      </trkpt>
      <trkpt lat="45.70281" lon="3.1607">
        <ele>376.1</ele>
        <time>2022-07-03T07:00:05+00:00</time>
      </trkpt>
      <trkpt lat="45.7027" lon="3.16044">
        <ele>375.7</ele>
        <time>2022-07-03T07:00:09+00:00</time>
      </trkpt>
      <trkpt lat="45.70251" lon="3.1601">
        <ele>376.4</ele>
        <time>2022-07-03T07:00:15+00:00</time>
      </trkpt>
      <trkpt lat="45.70238" lon="3.15988">
        <ele>376.8</ele>
        <time>2022-07-03T07:00:19+00:00</time>
      </trkpt>
      <trkpt lat="45.70224" lon="3.15955">
        <ele>377.2</ele>
        <time>2022-07-03T07:00:25+00:00</time>
      </trkpt>
      <trkpt lat="45.70218" lon="3.15933">
        <ele>377.3</ele>
        <time>2022-07-03T07:00:29+00:00</time>
      </trkpt>
      <trkpt lat="45.70212" lon="3.15917">
        <ele>377.7</ele>
        <time>2022-07-03T07:00:33+00:00</time>
      </trkpt>
      <trkpt lat="45.70205" lon="3.159">
        <ele>378.5</ele>
        <time>2022-07-03T07:00:39+00:00</time>
      </trkpt>
      <trkpt lat="45.70201" lon="3.15881">
        <ele>378.8</ele>
        <time>2022-07-03T07:00:43+00:00</time>
      </trkpt>
      <trkpt lat="45.70188" lon="3.15864">
        <ele>379</ele>
        <time>2022-07-03T07:00:47+00:00</time>
      </trkpt>
      <trkpt lat="45.70162" lon="3.15859">
        <ele>378.8</ele>
        <time>2022-07-03T07:00:53+00:00</time>
      </trkpt>
      <trkpt lat="45.70145" lon="3.15874">
        <ele>378.1</ele>
        <time>2022-07-03T07:00:57+00:00</time>
      </trkpt>
      <trkpt lat="45.70126" lon="3.15893">
        <ele>377.6</ele>
        <time>2022-07-03T07:01:01+00:00</time>
      </trkpt>
      <trkpt lat="45.70098" lon="3.15921">
        <ele>377.7</ele>
        <time>2022-07-03T07:01:07+00:00</time>
      </trkpt>
      <trkpt lat="45.70081" lon="3.15936">
        <ele>377.6</ele>
        <time>2022-07-03T07:01:11+00:00</time>
      </trkpt>
      <trkpt lat="45.70066" lon="3.1593">
        <ele>376.9</ele>
        <time>2022-07-03T07:01:15+00:00</time>
      </trkpt>
      <trkpt lat="45.70058" lon="3.15885">
        <ele>376</ele>
        <time>2022-07-03T07:01:21+00:00</time>
      </trkpt>
      <trkpt lat="45.70053" lon="3.15854">
        <ele>375.8</ele>
        <time>2022-07-03T07:01:25+00:00</time>
      </trkpt>
      <trkpt lat="45.70045" lon="3.15827">
        <ele>375.3</ele>
        <time>2022-07-03T07:01:29+00:00</time>
      </trkpt>
      <trkpt lat="45.70034" lon="3.15785">
        <ele>375.9</ele>
        <time>2022-07-03T07:01:35+00:00</time>
      </trkpt>
      <trkpt lat="45.70028" lon="3.1576">
        <ele>376.6</ele>
        <time>2022-07-03T07:01:39+00:00</time>
      </trkpt>
      <trkpt lat="45.70021" lon="3.15738">
        <ele>377.4</ele>
        <time>2022-07-03T07:01:43+00:00</time>
      </trkpt>
      <trkpt lat="45.70013" lon="3.15707">
        <ele>378.9</ele>
        <time>2022-07-03T07:01:49+00:00</time>
      </trkpt>
      <trkpt lat="45.70007" lon="3.1569">
        <ele>380</ele>
        <time>2022-07-03T07:01:53+00:00</time>
      </trkpt>
      <trkpt lat="45.70005" lon="3.15674">
        <ele>380.7</ele>
        <time>2022-07-03T07:01:57+00:00</time>
      </trkpt>
      <trkpt lat="45.70002" lon="3.15649">
        <ele>382.2</ele>
        <time>2022-07-03T07:02:03+00:00</time>
      </trkpt>
      <trkpt lat="45.70003" lon="3.15632">
        <ele>383.1</ele>
        <time>2022-07-03T07:02:07+00:00</time>
      </trkpt>
      <trkpt lat="45.70004" lon="3.15615">
        <ele>383.6</ele>
        <time>2022-07-03T07:02:11+00:00</time>
      </trkpt>
      <trkpt lat="45.70005" lon="3.15589">
        <ele>384.3</ele>
        <time>2022-07-03T07:02:17+00:00</time>
      </trkpt>
      <trkpt lat="45.70004" lon="3.15571">
        <ele>384.2</ele>
        <time>2022-07-03T07:02:21+00:00</time>
      </trkpt>
      <trkpt lat="45.7" lon="3.15553">
        <ele>384</ele>
        <time>2022-07-03T07:02:25+00:00</time>
      </trkpt>
      <trkpt lat="45.69994" lon="3.15523">
        <ele>384.4</ele>
        <time>2022-07-03T07:02:31+00:00</time>
      </trkpt>
      <trkpt lat="45.69988" lon="3.15507">
        <ele>384.5</ele>
        <time>2022-07-03T07:02:35+00:00</time>
      </trkpt>
      <trkpt lat="45.69986" lon="3.15481">
        <ele>384.6</ele>
        <time>2022-07-03T07:02:39+00:00</time>
      </trkpt>
      <trkpt lat="45.69977" lon="3.15444">
        <ele>385.2</ele>
        <time>2022-07-03T07:02:45+00:00</time>
      </trkpt>
      <trkpt lat="45.69971" lon="3.1542">
        <ele>385.3</ele>
        <time>2022-07-03T07:02:49+00:00</time>
      </trkpt>
      <trkpt lat="45.69967" lon="3.15396">
        <ele>384.6</ele>
        <time>2022-07-03T07:02:53+00:00</time>
      </trkpt>
      <trkpt lat="45.69958" lon="3.15358">
        <ele>385.5</ele>
        <time>2022-07-03T07:02:59+00:00</time>
      </trkpt>
      <trkpt lat="45.69952" lon="3.15332">
        <ele>385.5</ele>
        <time>2022-07-03T07:03:03+00:00</time>
      </trkpt>
      <trkpt lat="45.69946" lon="3.15306">
        <ele>385.8</ele>
        <time>2022-07-03T07:03:07+00:00</time>
      </trkpt>
      <trkpt lat="45.69938" lon="3.15266">
        <ele>384.8</ele>
        <time>2022-07-03T07:03:13+00:00</time>
      </trkpt>
      <trkpt lat="45.69929" lon="3.15235">
        <ele>385.4</ele>
        <time>2022-07-03T07:03:17+00:00</time>
      </trkpt>
      <trkpt lat="45.69916" lon="3.15194">
        <ele>385.1</ele>
        <time>2022-07-03T07:03:23+00:00</time>
      </trkpt>
      <trkpt lat="45.69906" lon="3.1517">
        <ele>385.7</ele>
        <time>2022-07-03T07:03:27+00:00</time>
      </trkpt>
      <trkpt lat="45.69896" lon="3.15148">
        <ele>386</ele>
        <time>2022-07-03T07:03:31+00:00</time>
      </trkpt>
      <trkpt lat="45.69875" lon="3.15122">
        <ele>386.8</ele>
        <time>2022-07-03T07:03:37+00:00</time>
      </trkpt>
      <trkpt lat="45.69863" lon="3.151">
        <ele>386.7</ele>
        <time>2022-07-03T07:03:41+00:00</time>
      </trkpt>
      <trkpt lat="45.69851" lon="3.15079">
        <ele>386</ele>
        <time>2022-07-03T07:03:45+00:00</time>
      </trkpt>
      <trkpt lat="45.69833" lon="3.1505">
        <ele>386</ele>
        <time>2022-07-03T07:03:51+00:00</time>
      </trkpt>
      <trkpt lat="45.69819" lon="3.15033">
        <ele>386.5</ele>
        <time>2022-07-03T07:03:55+00:00</time>
      </trkpt>
      <trkpt lat="45.69805" lon="3.15015">
        <ele>386.5</ele>
        <time>2022-07-03T07:03:59+00:00</time>
      </trkpt>
      <trkpt lat="45.69788" lon="3.14987">
        <ele>386.3</ele>
        <time>2022-07-03T07:04:05+00:00</time>
      </trkpt>
      <trkpt lat="45.69779" lon="3.14965">
        <ele>387</ele>
        <time>2022-07-03T07:04:09+00:00</time>
      </trkpt>
      <trkpt lat="45.69769" lon="3.14943">
        <ele>386.7</ele>
        <time>2022-07-03T07:04:13+00:00</time>
      </trkpt>
      <trkpt lat="45.69759" lon="3.1491">
        <ele>387</ele>
        <time>2022-07-03T07:04:19+00:00</time>
      </trkpt>
      <trkpt lat="45.69744" lon="3.14903">
        <ele>386.5</ele>
        <time>2022-07-03T07:04:23+00:00</time>
      </trkpt>
      <trkpt lat="45.69725" lon="3.1491">
        <ele>385.7</ele>
        <time>2022-07-03T07:04:27+00:00</time>
      </trkpt>
      <trkpt lat="45.69696" lon="3.14924">
        <ele>386</ele>
        <time>2022-07-03T07:04:33+00:00</time>
      </trkpt>
      <trkpt lat="45.69675" lon="3.14937">
        <ele>384.9</ele>
        <time>2022-07-03T07:04:37+00:00</time>
      </trkpt>
      <trkpt lat="45.69656" lon="3.14959">
        <ele>383.9</ele>
        <time>2022-07-03T07:04:41+00:00</time>
      </trkpt>
      <trkpt lat="45.69637" lon="3.15003">
        <ele>382.8</ele>
        <time>2022-07-03T07:04:47+00:00</time>
      </trkpt>
      <trkpt lat="45.69627" lon="3.15003">
        <ele>382.5</ele>
        <time>2022-07-03T07:04:51+00:00</time>
      </trkpt>
      <trkpt lat="45.69612" lon="3.14995">
        <ele>382.2</ele>
        <time>2022-07-03T07:04:55+00:00</time>
      </trkpt>
      <trkpt lat="45.69582" lon="3.1498">
        <ele>382.5</ele>
        <time>2022-07-03T07:05:01+00:00</time>
      </trkpt>
      <trkpt lat="45.69565" lon="3.14966">
        <ele>383.2</ele>
        <time>2022-07-03T07:05:05+00:00</time>
      </trkpt>
      <trkpt lat="45.69549" lon="3.14953">
        <ele>383.9</ele>
        <time>2022-07-03T07:05:09+00:00</time>
      </trkpt>
      <trkpt lat="45.69525" lon="3.14938">
        <ele>385.9</ele>
        <time>2022-07-03T07:05:15+00:00</time>
      </trkpt>
      <trkpt lat="45.69515" lon="3.14929">
        <ele>387.1</ele>
        <time>2022-07-03T07:05:19+00:00</time>
      </trkpt>
      <trkpt lat="45.69518" lon="3.14914">
        <ele>388.1</ele>
        <time>2022-07-03T07:05:23+00:00</time>
      </trkpt>
      <trkpt lat="45.69538" lon="3.14905">
        <ele>388.1</ele>
        <time>2022-07-03T07:05:29+00:00</time>
      </trkpt>
      <trkpt lat="45.69555" lon="3.14901">
        <ele>387.6</ele>
        <time>2022-07-03T07:05:33+00:00</time>
      </trkpt>
      <trkpt lat="45.69576" lon="3.14895">
        <ele>387.5</ele>
        <time>2022-07-03T07:05:37+00:00</time>
      </trkpt>
      <trkpt lat="45.69608" lon="3.14883">
        <ele>387.3</ele>
        <time>2022-07-03T07:05:43+00:00</time>
      </trkpt>
      <trkpt lat="45.69629" lon="3.14874">
        <ele>386.9</ele>
        <time>2022-07-03T07:05:47+00:00</time>
      </trkpt>
      <trkpt lat="45.6965" lon="3.14865">
        <ele>386.3</ele>
        <time>2022-07-03T07:05:51+00:00</time>
      </trkpt>
      <trkpt lat="45.69671" lon="3.14845">
        <ele>388.5</ele>
        <time>2022-07-03T07:05:57+00:00</time>
      </trkpt>
      <trkpt lat="45.69673" lon="3.14826">
        <ele>390.3</ele>
        <time>2022-07-03T07:06:01+00:00</time>
      </trkpt>
      <trkpt lat="45.69671" lon="3.1481">
        <ele>390.8</ele>
        <time>2022-07-03T07:06:07+00:00</time>
      </trkpt>
      <trkpt lat="45.69668" lon="3.1479">
        <ele>389.8</ele>
        <time>2022-07-03T07:06:11+00:00</time>
      </trkpt>
      <trkpt lat="45.69673" lon="3.14776">
        <ele>388.8</ele>
        <time>2022-07-03T07:06:15+00:00</time>
      </trkpt>
      <trkpt lat="45.69674" lon="3.14776">
        <ele>388.8</ele>
        <time>2022-07-03T07:07:03+00:00</time>
      </trkpt>
      <trkpt lat="45.69689" lon="3.14782">
        <ele>388.7</ele>
        <time>2022-07-03T07:07:45+00:00</time>
      </trkpt>
      <trkpt lat="45.69687" lon="3.1478">
        <ele>388.5</ele>
        <time>2022-07-03T07:07:49+00:00</time>
      </trkpt>
      <trkpt lat="45.69676" lon="3.14778">
        <ele>388.7</ele>
        <time>2022-07-03T07:07:53+00:00</time>
      </trkpt>
      <trkpt lat="45.69671" lon="3.1477">
        <ele>389.1</ele>
        <time>2022-07-03T07:07:59+00:00</time>
      </trkpt>
      <trkpt lat="45.69674" lon="3.14758">
        <ele>389.5</ele>
        <time>2022-07-03T07:08:03+00:00</time>
      </trkpt>
      <trkpt lat="45.69678" lon="3.14747">
        <ele>389.7</ele>
        <time>2022-07-03T07:08:07+00:00</time>
      </trkpt>
      <trkpt lat="45.69684" lon="3.14729">
        <ele>389.7</ele>
        <time>2022-07-03T07:08:13+00:00</time>
      </trkpt>
      <trkpt lat="45.69687" lon="3.14716">
        <ele>389.7</ele>
        <time>2022-07-03T07:08:17+00:00</time>
      </trkpt>
      <trkpt lat="45.69689" lon="3.14703">
        <ele>390</ele>
        <time>2022-07-03T07:08:21+00:00</time>
      </trkpt>
      <trkpt lat="45.69692" lon="3.14681">
        <ele>390.6</ele>
        <time>2022-07-03T07:08:27+00:00</time>
      </trkpt>
      <trkpt lat="45.69694" lon="3.14667">
        <ele>391</ele>
        <time>2022-07-03T07:08:31+00:00</time>
      </trkpt>
      <trkpt lat="45.69695" lon="3.14651">
        <ele>391</ele>
        <time>2022-07-03T07:08:35+00:00</time>
      </trkpt>
      <trkpt lat="45.69696" lon="3.14627">
        <ele>390.9</ele>
        <time>2022-07-03T07:08:41+00:00</time>
      </trkpt>
      <trkpt lat="45.69695" lon="3.14611">
        <ele>391</ele>
        <time>2022-07-03T07:08:45+00:00</time>
      </trkpt>
      <trkpt lat="45.69699" lon="3.14586">
        <ele>391.3</ele>
        <time>2022-07-03T07:08:51+00:00</time>
      </trkpt>
      <trkpt lat="45.69704" lon="3.14571">
        <ele>390.8</ele>
        <time>2022-07-03T07:08:55+00:00</time>
      </trkpt>
      <trkpt lat="45.69703" lon="3.14552">
        <ele>391.1</ele>
        <time>2022-07-03T07:08:59+00:00</time>
      </trkpt>
      <trkpt lat="45.69695" lon="3.14525">
        <ele>392</ele>
        <time>2022-07-03T07:09:05+00:00</time>
      </trkpt>
      <trkpt lat="45.69692" lon="3.1451">
        <ele>392.8</ele>
        <time>2022-07-03T07:09:09+00:00</time>
      </trkpt>
      <trkpt lat="45.69692" lon="3.14497">
        <ele>393.3</ele>
        <time>2022-07-03T07:09:13+00:00</time>
      </trkpt>
      <trkpt lat="45.69695" lon="3.14477">
        <ele>393.8</ele>
        <time>2022-07-03T07:09:19+00:00</time>
      </trkpt>
      <trkpt lat="45.69696" lon="3.14463">
        <ele>394.1</ele>
        <time>2022-07-03T07:09:23+00:00</time>
      </trkpt>
      <trkpt lat="45.69696" lon="3.14451">
        <ele>394.5</ele>
        <time>2022-07-03T07:09:27+00:00</time>
      </trkpt>
      <trkpt lat="45.69695" lon="3.14428">
        <ele>394.9</ele>
        <time>2022-07-03T07:09:33+00:00</time>
      </trkpt>
      <trkpt lat="45.69695" lon="3.14414">
        <ele>395.1</ele>
        <time>2022-07-03T07:09:37+00:00</time>
      </trkpt>
      <trkpt lat="45.69694" lon="3.14403">
        <ele>395.5</ele>
        <time>2022-07-03T07:09:41+00:00</time>
      </trkpt>
      <trkpt lat="45.69693" lon="3.14385">
        <ele>396.3</ele>
        <time>2022-07-03T07:09:47+00:00</time>
      </trkpt>
      <trkpt lat="45.69693" lon="3.1437">
        <ele>396.9</ele>
        <time>2022-07-03T07:09:51+00:00</time>
      </trkpt>
      <trkpt lat="45.69693" lon="3.14355">
        <ele>397.4</ele>
        <time>2022-07-03T07:09:55+00:00</time>
      </trkpt>
      <trkpt lat="45.69697" lon="3.1433">
        <ele>397.8</ele>
        <time>2022-07-03T07:10:01+00:00</time>
      </trkpt>
      <trkpt lat="45.69702" lon="3.14316">
        <ele>397.6</ele>
        <time>2022-07-03T07:10:05+00:00</time>
      </trkpt>
      <trkpt lat="45.69706" lon="3.14301">
        <ele>397.4</ele>
        <time>2022-07-03T07:10:09+00:00</time>
      </trkpt>
      <trkpt lat="45.69711" lon="3.14277">
        <ele>397.2</ele>
        <time>2022-07-03T07:10:15+00:00</time>
      </trkpt>
      <trkpt lat="45.69714" lon="3.1426">
        <ele>397.3</ele>
        <time>2022-07-03T07:10:19+00:00</time>
      </trkpt>
      <trkpt lat="45.69717" lon="3.14243">
        <ele>397.6</ele>
        <time>2022-07-03T07:10:23+00:00</time>
      </trkpt>
      <trkpt lat="45.69709" lon="3.14225">
        <ele>398.8</ele>
        <time>2022-07-03T07:10:29+00:00</time>
      </trkpt>
      <trkpt lat="45.69703" lon="3.14219">
        <ele>399.4</ele>
        <time>2022-07-03T07:10:33+00:00</time>
      </trkpt>
      <trkpt lat="45.69694" lon="3.14212">
        <ele>400.1</ele>
        <time>2022-07-03T07:10:37+00:00</time>
      </trkpt>
      <trkpt lat="45.6968" lon="3.14205">
        <ele>402.7</ele>
        <time>2022-07-03T07:10:43+00:00</time>
      </trkpt>
      <trkpt lat="45.69671" lon="3.14201">
        <ele>404.2</ele>
        <time>2022-07-03T07:10:47+00:00</time>
      </trkpt>
      <trkpt lat="45.69663" lon="3.14202">
        <ele>405.7</ele>
        <time>2022-07-03T07:10:51+00:00</time>
      </trkpt>
      <trkpt lat="45.69654" lon="3.14204">
        <ele>407.6</ele>
        <time>2022-07-03T07:10:57+00:00</time>
      </trkpt>
      <trkpt lat="45.69648" lon="3.14207">
        <ele>408.8</ele>
        <time>2022-07-03T07:11:01+00:00</time>
      </trkpt>
      <trkpt lat="45.69641" lon="3.14206">
        <ele>410.1</ele>
        <time>2022-07-03T07:11:05+00:00</time>
      </trkpt>
      <trkpt lat="45.69631" lon="3.14203">
        <ele>412</ele>
        <time>2022-07-03T07:11:11+00:00</time>
      </trkpt>
      <trkpt lat="45.69625" lon="3.14201">
        <ele>413.3</ele>
        <time>2022-07-03T07:11:15+00:00</time>
      </trkpt>
      <trkpt lat="45.6962" lon="3.14199">
        <ele>414.2</ele>
        <time>2022-07-03T07:11:19+00:00</time>
      </trkpt>
      <trkpt lat="45.69611" lon="3.14198">
        <ele>415.9</ele>
        <time>2022-07-03T07:11:25+00:00</time>
      </trkpt>
      <trkpt lat="45.69606" lon="3.14196">
        <ele>416.7</ele>
        <time>2022-07-03T07:11:29+00:00</time>
      </trkpt>
      <trkpt lat="45.69601" lon="3.14197">
        <ele>417.4</ele>
        <time>2022-07-03T07:11:33+00:00</time>
      </trkpt>
      <trkpt lat="45.69594" lon="3.14198">
        <ele>418.4</ele>
        <time>2022-07-03T07:11:39+00:00</time>
      </trkpt>
      <trkpt lat="45.69589" lon="3.14198">
        <ele>419.2</ele>
        <time>2022-07-03T07:11:43+00:00</time>
      </trkpt>
      <trkpt lat="45.69581" lon="3.14199">
        <ele>420.3</ele>
        <time>2022-07-03T07:11:49+00:00</time>
      </trkpt>
      <trkpt lat="45.69576" lon="3.14199">
        <ele>421</ele>
        <time>2022-07-03T07:11:53+00:00</time>
      </trkpt>
      <trkpt lat="45.69571" lon="3.14198">
        <ele>421.8</ele>
        <time>2022-07-03T07:11:57+00:00</time>
      </trkpt>
      <trkpt lat="45.69564" lon="3.14198">
        <ele>422.8</ele>
        <time>2022-07-03T07:12:03+00:00</time>
      </trkpt>
      <trkpt lat="45.69558" lon="3.14197">
        <ele>423.7</ele>
        <time>2022-07-03T07:12:07+00:00</time>
      </trkpt>
      <trkpt lat="45.69553" lon="3.14198">
        <ele>424.4</ele>
        <time>2022-07-03T07:12:11+00:00</time>
      </trkpt>
      <trkpt lat="45.69546" lon="3.14199">
        <ele>425.7</ele>
        <time>2022-07-03T07:12:17+00:00</time>
      </trkpt>
      <trkpt lat="45.69541" lon="3.14196">
        <ele>426.6</ele>
        <time>2022-07-03T07:12:21+00:00</time>
      </trkpt>
      <trkpt lat="45.69536" lon="3.14192">
        <ele>427.5</ele>
        <time>2022-07-03T07:12:25+00:00</time>
      </trkpt>
      <trkpt lat="45.6953" lon="3.14186">
        <ele>428.9</ele>
        <time>2022-07-03T07:12:31+00:00</time>
      </trkpt>
      <trkpt lat="45.69525" lon="3.14182">
        <ele>429.8</ele>
        <time>2022-07-03T07:12:35+00:00</time>
      </trkpt>
      <trkpt lat="45.69521" lon="3.14179">
        <ele>430.6</ele>
        <time>2022-07-03T07:12:39+00:00</time>
      </trkpt>
      <trkpt lat="45.69514" lon="3.14174">
        <ele>431.7</ele>
        <time>2022-07-03T07:12:45+00:00</time>
      </trkpt>
      <trkpt lat="45.69509" lon="3.14168">
        <ele>432.6</ele>
        <time>2022-07-03T07:12:49+00:00</time>
      </trkpt>
      <trkpt lat="45.69506" lon="3.14166">
        <ele>433.3</ele>
        <time>2022-07-03T07:12:53+00:00</time>
      </trkpt>
      <trkpt lat="45.69499" lon="3.14161">
        <ele>434.8</ele>
        <time>2022-07-03T07:12:59+00:00</time>
      </trkpt>
      <trkpt lat="45.69495" lon="3.14159">
        <ele>435.5</ele>
        <time>2022-07-03T07:13:03+00:00</time>
      </trkpt>
      <trkpt lat="45.6949" lon="3.14155">
        <ele>436.5</ele>
        <time>2022-07-03T07:13:07+00:00</time>
      </trkpt>
      <trkpt lat="45.69484" lon="3.14151">
        <ele>437.7</ele>
        <time>2022-07-03T07:13:13+00:00</time>
      </trkpt>
      <trkpt lat="45.69479" lon="3.14148">
        <ele>438.5</ele>
        <time>2022-07-03T07:13:17+00:00</time>
      </trkpt>
      <trkpt lat="45.69475" lon="3.14146">
        <ele>439.2</ele>
        <time>2022-07-03T07:13:21+00:00</time>
      </trkpt>
      <trkpt lat="45.69468" lon="3.14142">
        <ele>440.4</ele>
        <time>2022-07-03T07:13:27+00:00</time>
      </trkpt>
      <trkpt lat="45.69464" lon="3.14139">
        <ele>441.3</ele>
        <time>2022-07-03T07:13:31+00:00</time>
      </trkpt>
      <trkpt lat="45.69459" lon="3.14135">
        <ele>442.4</ele>
        <time>2022-07-03T07:13:35+00:00</time>
      </trkpt>
      <trkpt lat="45.69453" lon="3.1413">
        <ele>444.2</ele>
        <time>2022-07-03T07:13:41+00:00</time>
      </trkpt>
      <trkpt lat="45.69448" lon="3.14125">
        <ele>445.5</ele>
        <time>2022-07-03T07:13:45+00:00</time>
      </trkpt>
      <trkpt lat="45.69445" lon="3.14121">
        <ele>446.5</ele>
        <time>2022-07-03T07:13:49+00:00</time>
      </trkpt>
      <trkpt lat="45.69438" lon="3.14115">
        <ele>448.2</ele>
        <time>2022-07-03T07:13:55+00:00</time>
      </trkpt>
      <trkpt lat="45.69435" lon="3.1411">
        <ele>449.2</ele>
        <time>2022-07-03T07:13:59+00:00</time>
      </trkpt>
      <trkpt lat="45.6943" lon="3.14107">
        <ele>450.2</ele>
        <time>2022-07-03T07:14:03+00:00</time>
      </trkpt>
      <trkpt lat="45.69423" lon="3.14101">
        <ele>452</ele>
        <time>2022-07-03T07:14:09+00:00</time>
      </trkpt>
      <trkpt lat="45.6942" lon="3.14099">
        <ele>452.8</ele>
        <time>2022-07-03T07:14:13+00:00</time>
      </trkpt>
      <trkpt lat="45.69418" lon="3.14094">
        <ele>453.9</ele>
        <time>2022-07-03T07:14:17+00:00</time>
      </trkpt>
      <trkpt lat="45.69421" lon="3.14087">
        <ele>454.8</ele>
        <time>2022-07-03T07:14:23+00:00</time>
      </trkpt>
      <trkpt lat="45.69423" lon="3.14083">
        <ele>455.1</ele>
        <time>2022-07-03T07:14:27+00:00</time>
      </trkpt>
      <trkpt lat="45.69426" lon="3.14075">
        <ele>455.1</ele>
        <time>2022-07-03T07:14:33+00:00</time>
      </trkpt>
      <trkpt lat="45.69429" lon="3.1407">
        <ele>455.1</ele>
        <time>2022-07-03T07:14:37+00:00</time>
      </trkpt>
      <trkpt lat="45.69431" lon="3.14064">
        <ele>455.4</ele>
        <time>2022-07-03T07:14:41+00:00</time>
      </trkpt>
      <trkpt lat="45.69432" lon="3.14054">
        <ele>456</ele>
        <time>2022-07-03T07:14:47+00:00</time>
      </trkpt>
      <trkpt lat="45.69431" lon="3.14046">
        <ele>456.3</ele>
        <time>2022-07-03T07:14:51+00:00</time>
      </trkpt>
      <trkpt lat="45.69434" lon="3.14051">
        <ele>455.9</ele>
        <time>2022-07-03T07:14:55+00:00</time>
      </trkpt>
      <trkpt lat="45.69432" lon="3.14064">
        <ele>455.3</ele>
        <time>2022-07-03T07:15:01+00:00</time>
      </trkpt>
      <trkpt lat="45.6943" lon="3.14071">
        <ele>455</ele>
        <time>2022-07-03T07:15:05+00:00</time>
      </trkpt>
      <trkpt lat="45.69428" lon="3.14077">
        <ele>454.8</ele>
        <time>2022-07-03T07:15:09+00:00</time>
      </trkpt>
      <trkpt lat="45.69425" lon="3.14083">
        <ele>454.8</ele>
        <time>2022-07-03T07:15:15+00:00</time>
      </trkpt>
      <trkpt lat="45.6942" lon="3.1409">
        <ele>454.3</ele>
        <time>2022-07-03T07:15:19+00:00</time>
      </trkpt>
      <trkpt lat="45.69415" lon="3.14094">
        <ele>454.2</ele>
        <time>2022-07-03T07:15:23+00:00</time>
      </trkpt>
      <trkpt lat="45.69421" lon="3.14093">
        <ele>453.8</ele>
        <time>2022-07-03T07:15:29+00:00</time>
      </trkpt>
      <trkpt lat="45.69423" lon="3.14087">
        <ele>454.5</ele>
        <time>2022-07-03T07:15:33+00:00</time>
      </trkpt>
      <trkpt lat="45.69426" lon="3.1408">
        <ele>454.8</ele>
        <time>2022-07-03T07:15:37+00:00</time>
      </trkpt>
      <trkpt lat="45.6943" lon="3.14072">
        <ele>454.9</ele>
        <time>2022-07-03T07:15:43+00:00</time>
      </trkpt>
      <trkpt lat="45.69431" lon="3.14066">
        <ele>455.2</ele>
        <time>2022-07-03T07:15:47+00:00</time>
      </trkpt>
      <trkpt lat="45.69433" lon="3.14059">
        <ele>455.6</ele>
        <time>2022-07-03T07:15:51+00:00</time>
      </trkpt>
      <trkpt lat="45.69433" lon="3.14051">
        <ele>456</ele>
        <time>2022-07-03T07:15:57+00:00</time>
      </trkpt>
      <trkpt lat="45.69434" lon="3.14045">
        <ele>456.2</ele>
        <time>2022-07-03T07:16:01+00:00</time>
      </trkpt>
      <trkpt lat="45.69435" lon="3.14042">
        <ele>456.2</ele>
        <time>2022-07-03T07:16:05+00:00</time>
      </trkpt>
      <trkpt lat="45.69435" lon="3.14033">
        <ele>456.5</ele>
        <time>2022-07-03T07:16:11+00:00</time>
      </trkpt>
      <trkpt lat="45.69436" lon="3.14026">
        <ele>456.6</ele>
        <time>2022-07-03T07:16:15+00:00</time>
      </trkpt>
      <trkpt lat="45.69437" lon="3.14019">
        <ele>456.6</ele>
        <time>2022-07-03T07:16:19+00:00</time>
      </trkpt>
      <trkpt lat="45.69438" lon="3.14008">
        <ele>456.7</ele>
        <time>2022-07-03T07:16:25+00:00</time>
      </trkpt>
      <trkpt lat="45.69436" lon="3.14003">
        <ele>456.9</ele>
        <time>2022-07-03T07:16:29+00:00</time>
      </trkpt>
      <trkpt lat="45.69437" lon="3.13998">
        <ele>456.8</ele>
        <time>2022-07-03T07:16:33+00:00</time>
      </trkpt>
      <trkpt lat="45.6944" lon="3.13986">
        <ele>456.1</ele>
        <time>2022-07-03T07:16:39+00:00</time>
      </trkpt>
      <trkpt lat="45.69441" lon="3.13971">
        <ele>455.5</ele>
        <time>2022-07-03T07:16:43+00:00</time>
      </trkpt>
      <trkpt lat="45.69444" lon="3.13952">
        <ele>455.1</ele>
        <time>2022-07-03T07:16:47+00:00</time>
      </trkpt>
      <trkpt lat="45.69443" lon="3.13919">
        <ele>455.2</ele>
        <time>2022-07-03T07:16:53+00:00</time>
      </trkpt>
      <trkpt lat="45.69441" lon="3.13902">
        <ele>456</ele>
        <time>2022-07-03T07:16:57+00:00</time>
      </trkpt>
      <trkpt lat="45.69439" lon="3.13888">
        <ele>456.9</ele>
        <time>2022-07-03T07:17:01+00:00</time>
      </trkpt>
      <trkpt lat="45.69433" lon="3.1388">
        <ele>457.9</ele>
        <time>2022-07-03T07:17:07+00:00</time>
      </trkpt>
      <trkpt lat="45.69426" lon="3.13881">
        <ele>458.7</ele>
        <time>2022-07-03T07:17:11+00:00</time>
      </trkpt>
      <trkpt lat="45.69421" lon="3.1388">
        <ele>459.5</ele>
        <time>2022-07-03T07:17:15+00:00</time>
      </trkpt>
      <trkpt lat="45.69413" lon="3.1388">
        <ele>460.3</ele>
        <time>2022-07-03T07:17:21+00:00</time>
      </trkpt>
      <trkpt lat="45.69407" lon="3.1388">
        <ele>460.7</ele>
        <time>2022-07-03T07:17:25+00:00</time>
      </trkpt>
      <trkpt lat="45.69397" lon="3.13878">
        <ele>461.5</ele>
        <time>2022-07-03T07:17:31+00:00</time>
      </trkpt>
      <trkpt lat="45.6939" lon="3.13878">
        <ele>461.9</ele>
        <time>2022-07-03T07:17:35+00:00</time>
      </trkpt>
      <trkpt lat="45.69384" lon="3.13878">
        <ele>462.5</ele>
        <time>2022-07-03T07:17:39+00:00</time>
      </trkpt>
      <trkpt lat="45.69374" lon="3.13877">
        <ele>463.6</ele>
        <time>2022-07-03T07:17:45+00:00</time>
      </trkpt>
      <trkpt lat="45.69371" lon="3.13871">
        <ele>463.9</ele>
        <time>2022-07-03T07:17:49+00:00</time>
      </trkpt>
      <trkpt lat="45.69373" lon="3.13866">
        <ele>463.7</ele>
        <time>2022-07-03T07:17:53+00:00</time>
      </trkpt>
      <trkpt lat="45.69373" lon="3.13854">
        <ele>463.9</ele>
        <time>2022-07-03T07:17:59+00:00</time>
      </trkpt>
      <trkpt lat="45.69373" lon="3.13847">
        <ele>464</ele>
        <time>2022-07-03T07:18:03+00:00</time>
      </trkpt>
      <trkpt lat="45.69373" lon="3.13838">
        <ele>464.2</ele>
        <time>2022-07-03T07:18:07+00:00</time>
      </trkpt>
      <trkpt lat="45.69373" lon="3.13826">
        <ele>464.5</ele>
        <time>2022-07-03T07:18:13+00:00</time>
      </trkpt>
      <trkpt lat="45.69371" lon="3.13817">
        <ele>464.7</ele>
        <time>2022-07-03T07:18:17+00:00</time>
      </trkpt>
      <trkpt lat="45.69371" lon="3.13811">
        <ele>464.8</ele>
        <time>2022-07-03T07:18:21+00:00</time>
      </trkpt>
      <trkpt lat="45.6937" lon="3.138">
        <ele>465</ele>
        <time>2022-07-03T07:18:27+00:00</time>
      </trkpt>
      <trkpt lat="45.69369" lon="3.13792">
        <ele>465.2</ele>
        <time>2022-07-03T07:18:31+00:00</time>
      </trkpt>
      <trkpt lat="45.69366" lon="3.13785">
        <ele>465.5</ele>
        <time>2022-07-03T07:18:35+00:00</time>
      </trkpt>
      <trkpt lat="45.69361" lon="3.13776">
        <ele>466</ele>
        <time>2022-07-03T07:18:41+00:00</time>
      </trkpt>
      <trkpt lat="45.69359" lon="3.1377">
        <ele>466.2</ele>
        <time>2022-07-03T07:18:45+00:00</time>
      </trkpt>
      <trkpt lat="45.69356" lon="3.13765">
        <ele>464.4004</ele>
        <time>2022-07-03T07:18:49+00:00</time>
      </trkpt>
      <trkpt lat="45.69351" lon="3.13754">
        <ele>465.6006</ele>
        <time>2022-07-03T07:18:55+00:00</time>
      </trkpt>
      <trkpt lat="45.69347" lon="3.13747">
        <ele>465.6006</ele>
        <time>2022-07-03T07:18:59+00:00</time>
      </trkpt>
      <trkpt lat="45.69345" lon="3.13737">
        <ele>466.5</ele>
        <time>2022-07-03T07:19:03+00:00</time>
      </trkpt>
      <trkpt lat="45.69342" lon="3.13724">
        <ele>466.7002</ele>
        <time>2022-07-03T07:19:09+00:00</time>
      </trkpt>
      <trkpt lat="45.69344" lon="3.13715">
        <ele>466.9004</ele>
        <time>2022-07-03T07:19:13+00:00</time>
      </trkpt>
      <trkpt lat="45.69343" lon="3.13706">
        <ele>467.1006</ele>
        <time>2022-07-03T07:19:17+00:00</time>
      </trkpt>
      <trkpt lat="45.6934" lon="3.13692">
        <ele>468</ele>
        <time>2022-07-03T07:19:23+00:00</time>
      </trkpt>
      <trkpt lat="45.69333" lon="3.13689">
        <ele>468.4004</ele>
        <time>2022-07-03T07:19:27+00:00</time>
      </trkpt>
      <trkpt lat="45.69327" lon="3.13688">
        <ele>468.9004</ele>
        <time>2022-07-03T07:19:31+00:00</time>
      </trkpt>
      <trkpt lat="45.69318" lon="3.13688">
        <ele>469.5</ele>
        <time>2022-07-03T07:19:37+00:00</time>
      </trkpt>
      <trkpt lat="45.69311" lon="3.13685">
        <ele>470.1006</ele>
        <time>2022-07-03T07:19:41+00:00</time>
      </trkpt>
      <trkpt lat="45.69306" lon="3.13683">
        <ele>470.7002</ele>
        <time>2022-07-03T07:19:45+00:00</time>
      </trkpt>
      <trkpt lat="45.69298" lon="3.13682">
        <ele>472.1006</ele>
        <time>2022-07-03T07:19:51+00:00</time>
      </trkpt>
      <trkpt lat="45.69292" lon="3.1368">
        <ele>472.9004</ele>
        <time>2022-07-03T07:19:55+00:00</time>
      </trkpt>
      <trkpt lat="45.69286" lon="3.13679">
        <ele>473.7002</ele>
        <time>2022-07-03T07:19:59+00:00</time>
      </trkpt>
      <trkpt lat="45.69277" lon="3.13678">
        <ele>474.6006</ele>
        <time>2022-07-03T07:20:05+00:00</time>
      </trkpt>
      <trkpt lat="45.69271" lon="3.13676">
        <ele>475.2998</ele>
        <time>2022-07-03T07:20:09+00:00</time>
      </trkpt>
      <trkpt lat="45.69264" lon="3.13669">
        <ele>476.2998</ele>
        <time>2022-07-03T07:20:15+00:00</time>
      </trkpt>
      <trkpt lat="45.69261" lon="3.1366">
        <ele>477.2002</ele>
        <time>2022-07-03T07:20:19+00:00</time>
      </trkpt>
      <trkpt lat="45.6926" lon="3.13651">
        <ele>477.1006</ele>
        <time>2022-07-03T07:20:23+00:00</time>
      </trkpt>
      <trkpt lat="45.69259" lon="3.13637">
        <ele>477.2002</ele>
        <time>2022-07-03T07:20:29+00:00</time>
      </trkpt>
      <trkpt lat="45.69254" lon="3.1363">
        <ele>478.4004</ele>
        <time>2022-07-03T07:20:33+00:00</time>
      </trkpt>
      <trkpt lat="45.69248" lon="3.13628">
        <ele>479.5</ele>
        <time>2022-07-03T07:20:37+00:00</time>
      </trkpt>
      <trkpt lat="45.69238" lon="3.13622">
        <ele>481.2998</ele>
        <time>2022-07-03T07:20:43+00:00</time>
      </trkpt>
      <trkpt lat="45.69232" lon="3.1362">
        <ele>482.2002</ele>
        <time>2022-07-03T07:20:47+00:00</time>
      </trkpt>
      <trkpt lat="45.69226" lon="3.13617">
        <ele>483.1006</ele>
        <time>2022-07-03T07:20:51+00:00</time>
      </trkpt>
      <trkpt lat="45.69217" lon="3.13614">
        <ele>483.9004</ele>
        <time>2022-07-03T07:20:57+00:00</time>
      </trkpt>
      <trkpt lat="45.69212" lon="3.1361">
        <ele>484.7002</ele>
        <time>2022-07-03T07:21:01+00:00</time>
      </trkpt>
      <trkpt lat="45.69206" lon="3.13607">
        <ele>485.5</ele>
        <time>2022-07-03T07:21:05+00:00</time>
      </trkpt>
      <trkpt lat="45.69197" lon="3.13602">
        <ele>487.2002</ele>
        <time>2022-07-03T07:21:11+00:00</time>
      </trkpt>
      <trkpt lat="45.6919" lon="3.13599">
        <ele>488.2002</ele>
        <time>2022-07-03T07:21:15+00:00</time>
      </trkpt>
      <trkpt lat="45.69184" lon="3.13598">
        <ele>489.1006</ele>
        <time>2022-07-03T07:21:19+00:00</time>
      </trkpt>
      <trkpt lat="45.69176" lon="3.1359">
        <ele>490.2002</ele>
        <time>2022-07-03T07:21:25+00:00</time>
      </trkpt>
      <trkpt lat="45.69175" lon="3.13579">
        <ele>490.4004</ele>
        <time>2022-07-03T07:21:29+00:00</time>
      </trkpt>
      <trkpt lat="45.69178" lon="3.13569">
        <ele>490.7002</ele>
        <time>2022-07-03T07:21:33+00:00</time>
      </trkpt>
      <trkpt lat="45.69184" lon="3.13554">
        <ele>490.5</ele>
        <time>2022-07-03T07:21:39+00:00</time>
      </trkpt>
      <trkpt lat="45.69185" lon="3.13543">
        <ele>490.7998</ele>
        <time>2022-07-03T07:21:43+00:00</time>
      </trkpt>
      <trkpt lat="45.69181" lon="3.13536">
        <ele>491</ele>
        <time>2022-07-03T07:21:47+00:00</time>
      </trkpt>
      <trkpt lat="45.6917" lon="3.1353">
        <ele>492.9004</ele>
        <time>2022-07-03T07:21:53+00:00</time>
      </trkpt>
      <trkpt lat="45.69164" lon="3.13526">
        <ele>493.7002</ele>
        <time>2022-07-03T07:21:57+00:00</time>
      </trkpt>
      <trkpt lat="45.69159" lon="3.13524">
        <ele>494.5</ele>
        <time>2022-07-03T07:22:01+00:00</time>
      </trkpt>
      <trkpt lat="45.69153" lon="3.13515">
        <ele>495.4004</ele>
        <time>2022-07-03T07:22:07+00:00</time>
      </trkpt>
      <trkpt lat="45.69146" lon="3.13517">
        <ele>496.1006</ele>
        <time>2022-07-03T07:22:11+00:00</time>
      </trkpt>
      <trkpt lat="45.69141" lon="3.13513">
        <ele>496.9004</ele>
        <time>2022-07-03T07:22:15+00:00</time>
      </trkpt>
      <trkpt lat="45.69132" lon="3.13507">
        <ele>497.5</ele>
        <time>2022-07-03T07:22:21+00:00</time>
      </trkpt>
      <trkpt lat="45.69127" lon="3.13503">
        <ele>498.2002</ele>
        <time>2022-07-03T07:22:25+00:00</time>
      </trkpt>
      <trkpt lat="45.6912" lon="3.13499">
        <ele>498.7998</ele>
        <time>2022-07-03T07:22:29+00:00</time>
      </trkpt>
      <trkpt lat="45.69112" lon="3.13491">
        <ele>500.4004</ele>
        <time>2022-07-03T07:22:35+00:00</time>
      </trkpt>
      <trkpt lat="45.69107" lon="3.13487">
        <ele>500.7002</ele>
        <time>2022-07-03T07:22:39+00:00</time>
      </trkpt>
      <trkpt lat="45.69101" lon="3.13482">
        <ele>501.4004</ele>
        <time>2022-07-03T07:22:43+00:00</time>
      </trkpt>
      <trkpt lat="45.69093" lon="3.13474">
        <ele>503</ele>
        <time>2022-07-03T07:22:49+00:00</time>
      </trkpt>
      <trkpt lat="45.69087" lon="3.1347">
        <ele>504.1006</ele>
        <time>2022-07-03T07:22:53+00:00</time>
      </trkpt>
      <trkpt lat="45.69081" lon="3.13466">
        <ele>504.7002</ele>
        <time>2022-07-03T07:22:57+00:00</time>
      </trkpt>
      <trkpt lat="45.69072" lon="3.13459">
        <ele>505.5</ele>
        <time>2022-07-03T07:23:03+00:00</time>
      </trkpt>
      <trkpt lat="45.69067" lon="3.13455">
        <ele>505.7998</ele>
        <time>2022-07-03T07:23:07+00:00</time>
      </trkpt>
      <trkpt lat="45.6906" lon="3.13453">
        <ele>506.5</ele>
        <time>2022-07-03T07:23:13+00:00</time>
      </trkpt>
      <trkpt lat="45.69058" lon="3.13449">
        <ele>506.9004</ele>
        <time>2022-07-03T07:23:17+00:00</time>
      </trkpt>
      <trkpt lat="45.69063" lon="3.13449">
        <ele>506.5</ele>
        <time>2022-07-03T07:23:21+00:00</time>
      </trkpt>
      <trkpt lat="45.69071" lon="3.13454">
        <ele>505.7998</ele>
        <time>2022-07-03T07:23:27+00:00</time>
      </trkpt>
      <trkpt lat="45.69075" lon="3.13457">
        <ele>505.5</ele>
        <time>2022-07-03T07:23:31+00:00</time>
      </trkpt>
      <trkpt lat="45.6908" lon="3.1346">
        <ele>505.1006</ele>
        <time>2022-07-03T07:23:35+00:00</time>
      </trkpt>
      <trkpt lat="45.69084" lon="3.13464">
        <ele>504.1006</ele>
        <time>2022-07-03T07:23:41+00:00</time>
      </trkpt>
      <trkpt lat="45.69079" lon="3.1346">
        <ele>505.1006</ele>
        <time>2022-07-03T07:23:45+00:00</time>
      </trkpt>
      <trkpt lat="45.69071" lon="3.13456">
        <ele>505.7998</ele>
        <time>2022-07-03T07:23:49+00:00</time>
      </trkpt>
      <trkpt lat="45.69062" lon="3.1345">
        <ele>506.5</ele>
        <time>2022-07-03T07:23:55+00:00</time>
      </trkpt>
      <trkpt lat="45.69054" lon="3.13447">
        <ele>506.9004</ele>
        <time>2022-07-03T07:23:59+00:00</time>
      </trkpt>
      <trkpt lat="45.69049" lon="3.13437">
        <ele>507.7998</ele>
        <time>2022-07-03T07:24:03+00:00</time>
      </trkpt>
      <trkpt lat="45.69041" lon="3.13427">
        <ele>509.2998</ele>
        <time>2022-07-03T07:24:09+00:00</time>
      </trkpt>
      <trkpt lat="45.69034" lon="3.13425">
        <ele>509.7998</ele>
        <time>2022-07-03T07:24:13+00:00</time>
      </trkpt>
      <trkpt lat="45.69027" lon="3.13423">
        <ele>510.2002</ele>
        <time>2022-07-03T07:24:17+00:00</time>
      </trkpt>
      <trkpt lat="45.69016" lon="3.13416">
        <ele>511.6006</ele>
        <time>2022-07-03T07:24:23+00:00</time>
      </trkpt>
      <trkpt lat="45.69016" lon="3.13404">
        <ele>511.9004</ele>
        <time>2022-07-03T07:24:27+00:00</time>
      </trkpt>
      <trkpt lat="45.69015" lon="3.13392">
        <ele>512.4004</ele>
        <time>2022-07-03T07:24:31+00:00</time>
      </trkpt>
      <trkpt lat="45.69012" lon="3.13376">
        <ele>512.7002</ele>
        <time>2022-07-03T07:24:37+00:00</time>
      </trkpt>
      <trkpt lat="45.69009" lon="3.13364">
        <ele>513.2998</ele>
        <time>2022-07-03T07:24:41+00:00</time>
      </trkpt>
      <trkpt lat="45.69007" lon="3.13355">
        <ele>513.4004</ele>
        <time>2022-07-03T07:24:45+00:00</time>
      </trkpt>
      <trkpt lat="45.69003" lon="3.1334">
        <ele>514.1006</ele>
        <time>2022-07-03T07:24:51+00:00</time>
      </trkpt>
      <trkpt lat="45.68998" lon="3.13332">
        <ele>514.6006</ele>
        <time>2022-07-03T07:24:55+00:00</time>
      </trkpt>
      <trkpt lat="45.68995" lon="3.13321">
        <ele>514.7002</ele>
        <time>2022-07-03T07:24:59+00:00</time>
      </trkpt>
      <trkpt lat="45.6899" lon="3.13306">
        <ele>515.2998</ele>
        <time>2022-07-03T07:25:05+00:00</time>
      </trkpt>
      <trkpt lat="45.68985" lon="3.13295">
        <ele>515.9004</ele>
        <time>2022-07-03T07:25:09+00:00</time>
      </trkpt>
      <trkpt lat="45.68979" lon="3.13285">
        <ele>516.7002</ele>
        <time>2022-07-03T07:25:13+00:00</time>
      </trkpt>
      <trkpt lat="45.68969" lon="3.13265">
        <ele>518.2998</ele>
        <time>2022-07-03T07:25:19+00:00</time>
      </trkpt>
      <trkpt lat="45.68962" lon="3.13253">
        <ele>519.5</ele>
        <time>2022-07-03T07:25:23+00:00</time>
      </trkpt>
      <trkpt lat="45.68956" lon="3.1324">
        <ele>520.5</ele>
        <time>2022-07-03T07:25:27+00:00</time>
      </trkpt>
      <trkpt lat="45.68946" lon="3.13225">
        <ele>522</ele>
        <time>2022-07-03T07:25:33+00:00</time>
      </trkpt>
      <trkpt lat="45.68941" lon="3.13213">
        <ele>523.4004</ele>
        <time>2022-07-03T07:25:37+00:00</time>
      </trkpt>
      <trkpt lat="45.68934" lon="3.13204">
        <ele>525.2998</ele>
        <time>2022-07-03T07:25:41+00:00</time>
      </trkpt>
      <trkpt lat="45.68929" lon="3.13192">
        <ele>526.7002</ele>
        <time>2022-07-03T07:25:47+00:00</time>
      </trkpt>
      <trkpt lat="45.68924" lon="3.1318">
        <ele>527.7998</ele>
        <time>2022-07-03T07:25:51+00:00</time>
      </trkpt>
      <trkpt lat="45.68915" lon="3.13165">
        <ele>529.7002</ele>
        <time>2022-07-03T07:25:57+00:00</time>
      </trkpt>
      <trkpt lat="45.6891" lon="3.13156">
        <ele>529.7998</ele>
        <time>2022-07-03T07:26:01+00:00</time>
      </trkpt>
      <trkpt lat="45.68907" lon="3.13145">
        <ele>530.7002</ele>
        <time>2022-07-03T07:26:05+00:00</time>
      </trkpt>
      <trkpt lat="45.68911" lon="3.13121">
        <ele>530.6006</ele>
        <time>2022-07-03T07:26:11+00:00</time>
      </trkpt>
      <trkpt lat="45.68915" lon="3.131">
        <ele>531.5</ele>
        <time>2022-07-03T07:26:15+00:00</time>
      </trkpt>
      <trkpt lat="45.68918" lon="3.13078">
        <ele>531</ele>
        <time>2022-07-03T07:26:19+00:00</time>
      </trkpt>
      <trkpt lat="45.68923" lon="3.13043">
        <ele>531</ele>
        <time>2022-07-03T07:26:25+00:00</time>
      </trkpt>
      <trkpt lat="45.68926" lon="3.13028">
        <ele>528.4</ele>
        <time>2022-07-03T07:26:29+00:00</time>
      </trkpt>
      <trkpt lat="45.688" lon="3.12996">
        <ele>551</ele>
      </trkpt>
      <trkpt lat="45.68799" lon="3.12882">
        <ele>554</ele>
      </trkpt>
      <trkpt lat="45.68697" lon="3.12904">
        <ele>571.4</ele>
      </trkpt>
      <trkpt lat="45.68691" lon="3.12799">
        <ele>577.2</ele>
      </trkpt>
      <trkpt lat="45.68717" lon="3.12733">
        <ele>576.9</ele>
      </trkpt>
      <trkpt lat="45.68715" lon="3.12604">
        <ele>573.8</ele>
      </trkpt>
      <trkpt lat="45.68597" lon="3.12638">
        <ele>584.6</ele>
      </trkpt>
      <trkpt lat="45.68562" lon="3.12628">
        <ele>589.4</ele>
      </trkpt>
      <trkpt lat="45.6851" lon="3.12633">
        <ele>587.7</ele>
      </trkpt>
      <trkpt lat="45.68283" lon="3.12319">
        <ele>565</ele>
      </trkpt>
      <trkpt lat="45.67965" lon="3.11806">
        <ele>543</ele>
      </trkpt>
      <trkpt lat="45.67776" lon="3.1177">
        <ele>520.3</ele>
      </trkpt>
      <trkpt lat="45.67706" lon="3.11731">
        <ele>511.4</ele>
      </trkpt>
      <trkpt lat="45.67622" lon="3.11625">
        <ele>503.3</ele>
      </trkpt>
      <trkpt lat="45.67528" lon="3.11614">
        <ele>493.3</ele>
      </trkpt>
      <trkpt lat="45.6752" lon="3.11514">
        <ele>479.3</ele>
      </trkpt>
      <trkpt lat="45.67483" lon="3.11539">
        <ele>479.1</ele>
      </trkpt>
      <trkpt lat="45.67439" lon="3.11652">
        <ele>484.5</ele>
      </trkpt>
      <trkpt lat="45.67587" lon="3.11899">
        <ele>494.2</ele>
      </trkpt>
      <trkpt lat="45.67518" lon="3.11966">
        <ele>482.4</ele>
      </trkpt>
      <trkpt lat="45.67341" lon="3.11995">
        <ele>453.9</ele>
      </trkpt>
      <trkpt lat="45.67281" lon="3.12029">
        <ele>442.4</ele>
      </trkpt>
      <trkpt lat="45.67262" lon="3.12108">
        <ele>433.3</ele>
        <time>2022-07-03T07:26:33+00:00</time>
      </trkpt>
    </trkseg>
  </trk>
</gpx>